<?xml version="1.0" encoding="UTF-8" standalone="no" ?>
<gpx xmlns="http://www.topografix.com/GPX/1/1" xmlns:xsi="http://www.w3.org/2001/XMLSchema-instance" xsi:schemaLocation="http://www.topografix.com/GPX/1/1 http://www.topografix.com/GPX/1/1/gpx.xsd" version="1.1" creator="VisuGPX - https://www.visugpx.com">
  <metadata>
    <name>GESTIES - PLA DE MONTCAMP 18/12/2016</name>
    <desc><![CDATA[Beau parcours en boucle, sans neige ce jour-là.
Pas de difficulté technique à la montée.
Attention : la trace du retour est compliquée par la végétation dense et l'orientation hors sentier.
L'aller-retour depuis le sommet est plus confortable et plus sur.
12 km pour 1 000 m de D ]]></desc>
  </metadata>
  <trk>
    <name><![CDATA[18-DEC-16 16:19:04]]></name>
    <trkseg>
      <trkpt lat="42.76742" lon="1.57266">
        <ele>947.52</ele>
        <time>2016-12-18T08:22:48Z</time>
      </trkpt>
      <trkpt lat="42.76757" lon="1.57268">
        <ele>950.88</ele>
        <time>2016-12-18T08:23:38Z</time>
      </trkpt>
      <trkpt lat="42.76758" lon="1.57279">
        <ele>952.32</ele>
        <time>2016-12-18T08:23:49Z</time>
      </trkpt>
      <trkpt lat="42.76747" lon="1.57283">
        <ele>952.32</ele>
        <time>2016-12-18T08:23:59Z</time>
      </trkpt>
      <trkpt lat="42.76737" lon="1.57285">
        <ele>952.8</ele>
        <time>2016-12-18T08:24:09Z</time>
      </trkpt>
      <trkpt lat="42.76724" lon="1.57286">
        <ele>954.25</ele>
        <time>2016-12-18T08:24:20Z</time>
      </trkpt>
      <trkpt lat="42.76712" lon="1.57287">
        <ele>957.61</ele>
        <time>2016-12-18T08:24:33Z</time>
      </trkpt>
      <trkpt lat="42.76701" lon="1.57286">
        <ele>955.69</ele>
        <time>2016-12-18T08:24:43Z</time>
      </trkpt>
      <trkpt lat="42.76689" lon="1.57288">
        <ele>957.13</ele>
        <time>2016-12-18T08:24:58Z</time>
      </trkpt>
      <trkpt lat="42.76676" lon="1.57292">
        <ele>958.57</ele>
        <time>2016-12-18T08:25:10Z</time>
      </trkpt>
      <trkpt lat="42.76666" lon="1.57298">
        <ele>960.01</ele>
        <time>2016-12-18T08:25:20Z</time>
      </trkpt>
      <trkpt lat="42.76645" lon="1.57318">
        <ele>963.38</ele>
        <time>2016-12-18T08:25:48Z</time>
      </trkpt>
      <trkpt lat="42.76643" lon="1.57336">
        <ele>965.78</ele>
        <time>2016-12-18T08:26:02Z</time>
      </trkpt>
      <trkpt lat="42.76645" lon="1.57348">
        <ele>968.18</ele>
        <time>2016-12-18T08:26:14Z</time>
      </trkpt>
      <trkpt lat="42.76649" lon="1.57363">
        <ele>970.59</ele>
        <time>2016-12-18T08:26:28Z</time>
      </trkpt>
      <trkpt lat="42.76659" lon="1.57371">
        <ele>972.99</ele>
        <time>2016-12-18T08:26:42Z</time>
      </trkpt>
      <trkpt lat="42.76666" lon="1.57381">
        <ele>975.39</ele>
        <time>2016-12-18T08:26:56Z</time>
      </trkpt>
      <trkpt lat="42.76673" lon="1.5739">
        <ele>977.8</ele>
        <time>2016-12-18T08:27:11Z</time>
      </trkpt>
      <trkpt lat="42.76674" lon="1.57406">
        <ele>981.16</ele>
        <time>2016-12-18T08:27:31Z</time>
      </trkpt>
      <trkpt lat="42.76677" lon="1.57424">
        <ele>984.05</ele>
        <time>2016-12-18T08:27:51Z</time>
      </trkpt>
      <trkpt lat="42.76686" lon="1.57439">
        <ele>987.89</ele>
        <time>2016-12-18T08:28:18Z</time>
      </trkpt>
      <trkpt lat="42.76693" lon="1.57451">
        <ele>991.26</ele>
        <time>2016-12-18T08:28:46Z</time>
      </trkpt>
      <trkpt lat="42.76696" lon="1.57466">
        <ele>996.06</ele>
        <time>2016-12-18T08:29:15Z</time>
      </trkpt>
      <trkpt lat="42.76702" lon="1.57478">
        <ele>1000.39</ele>
        <time>2016-12-18T08:29:50Z</time>
      </trkpt>
      <trkpt lat="42.76709" lon="1.57494">
        <ele>1006.16</ele>
        <time>2016-12-18T08:30:23Z</time>
      </trkpt>
      <trkpt lat="42.76705" lon="1.57516">
        <ele>1012.41</ele>
        <time>2016-12-18T08:31:02Z</time>
      </trkpt>
      <trkpt lat="42.76689" lon="1.57523">
        <ele>1018.65</ele>
        <time>2016-12-18T08:31:37Z</time>
      </trkpt>
      <trkpt lat="42.76678" lon="1.57527">
        <ele>1023.46</ele>
        <time>2016-12-18T08:32:08Z</time>
      </trkpt>
      <trkpt lat="42.76664" lon="1.57533">
        <ele>1027.79</ele>
        <time>2016-12-18T08:32:37Z</time>
      </trkpt>
      <trkpt lat="42.76652" lon="1.57566">
        <ele>1036.44</ele>
        <time>2016-12-18T08:33:33Z</time>
      </trkpt>
      <trkpt lat="42.76638" lon="1.57574">
        <ele>1043.17</ele>
        <time>2016-12-18T08:34:15Z</time>
      </trkpt>
      <trkpt lat="42.7663" lon="1.57586">
        <ele>1048.45</ele>
        <time>2016-12-18T08:34:47Z</time>
      </trkpt>
      <trkpt lat="42.7663" lon="1.57614">
        <ele>1057.11</ele>
        <time>2016-12-18T08:35:46Z</time>
      </trkpt>
      <trkpt lat="42.76629" lon="1.57635">
        <ele>1062.87</ele>
        <time>2016-12-18T08:36:24Z</time>
      </trkpt>
      <trkpt lat="42.76621" lon="1.57659">
        <ele>1069.12</ele>
        <time>2016-12-18T08:37:05Z</time>
      </trkpt>
      <trkpt lat="42.76616" lon="1.57695">
        <ele>1076.33</ele>
        <time>2016-12-18T08:37:56Z</time>
      </trkpt>
      <trkpt lat="42.76605" lon="1.57704">
        <ele>1081.62</ele>
        <time>2016-12-18T08:38:28Z</time>
      </trkpt>
      <trkpt lat="42.76584" lon="1.57716">
        <ele>1084.5</ele>
        <time>2016-12-18T08:39:00Z</time>
      </trkpt>
      <trkpt lat="42.76571" lon="1.57717">
        <ele>1088.35</ele>
        <time>2016-12-18T08:39:24Z</time>
      </trkpt>
      <trkpt lat="42.76557" lon="1.57725">
        <ele>1091.71</ele>
        <time>2016-12-18T08:39:50Z</time>
      </trkpt>
      <trkpt lat="42.76542" lon="1.57732">
        <ele>1095.08</ele>
        <time>2016-12-18T08:40:14Z</time>
      </trkpt>
      <trkpt lat="42.76531" lon="1.57766">
        <ele>1101.81</ele>
        <time>2016-12-18T08:41:00Z</time>
      </trkpt>
      <trkpt lat="42.76531" lon="1.57791">
        <ele>1107.58</ele>
        <time>2016-12-18T08:41:32Z</time>
      </trkpt>
      <trkpt lat="42.7654" lon="1.57808">
        <ele>1115.27</ele>
        <time>2016-12-18T08:42:16Z</time>
      </trkpt>
      <trkpt lat="42.76537" lon="1.57818">
        <ele>1121.52</ele>
        <time>2016-12-18T08:43:16Z</time>
      </trkpt>
      <trkpt lat="42.76541" lon="1.57848">
        <ele>1126.8</ele>
        <time>2016-12-18T08:43:58Z</time>
      </trkpt>
      <trkpt lat="42.76549" lon="1.57874">
        <ele>1132.09</ele>
        <time>2016-12-18T08:44:36Z</time>
      </trkpt>
      <trkpt lat="42.76549" lon="1.57895">
        <ele>1136.9</ele>
        <time>2016-12-18T08:45:13Z</time>
      </trkpt>
      <trkpt lat="42.76544" lon="1.57926">
        <ele>1146.03</ele>
        <time>2016-12-18T08:46:14Z</time>
      </trkpt>
      <trkpt lat="42.76549" lon="1.57949">
        <ele>1152.76</ele>
        <time>2016-12-18T08:47:01Z</time>
      </trkpt>
      <trkpt lat="42.76539" lon="1.57988">
        <ele>1161.41</ele>
        <time>2016-12-18T08:48:07Z</time>
      </trkpt>
      <trkpt lat="42.76528" lon="1.58005">
        <ele>1166.22</ele>
        <time>2016-12-18T08:50:18Z</time>
      </trkpt>
      <trkpt lat="42.76522" lon="1.58032">
        <ele>1170.54</ele>
        <time>2016-12-18T08:50:52Z</time>
      </trkpt>
      <trkpt lat="42.76524" lon="1.58061">
        <ele>1175.83</ele>
        <time>2016-12-18T08:51:32Z</time>
      </trkpt>
      <trkpt lat="42.76529" lon="1.58084">
        <ele>1183.04</ele>
        <time>2016-12-18T08:52:13Z</time>
      </trkpt>
      <trkpt lat="42.76535" lon="1.58104">
        <ele>1189.29</ele>
        <time>2016-12-18T08:52:57Z</time>
      </trkpt>
      <trkpt lat="42.76532" lon="1.5813">
        <ele>1196.02</ele>
        <time>2016-12-18T08:53:43Z</time>
      </trkpt>
      <trkpt lat="42.76526" lon="1.58158">
        <ele>1203.71</ele>
        <time>2016-12-18T08:54:37Z</time>
      </trkpt>
      <trkpt lat="42.76514" lon="1.58168">
        <ele>1210.44</ele>
        <time>2016-12-18T08:55:19Z</time>
      </trkpt>
      <trkpt lat="42.76509" lon="1.58183">
        <ele>1215.24</ele>
        <time>2016-12-18T08:55:51Z</time>
      </trkpt>
      <trkpt lat="42.76509" lon="1.58199">
        <ele>1218.61</ele>
        <time>2016-12-18T08:56:15Z</time>
      </trkpt>
      <trkpt lat="42.7651" lon="1.58217">
        <ele>1223.42</ele>
        <time>2016-12-18T08:56:46Z</time>
      </trkpt>
      <trkpt lat="42.76511" lon="1.58236">
        <ele>1229.18</ele>
        <time>2016-12-18T08:57:17Z</time>
      </trkpt>
      <trkpt lat="42.7651" lon="1.58265">
        <ele>1233.03</ele>
        <time>2016-12-18T08:57:52Z</time>
      </trkpt>
      <trkpt lat="42.76509" lon="1.58289">
        <ele>1237.83</ele>
        <time>2016-12-18T08:58:26Z</time>
      </trkpt>
      <trkpt lat="42.76503" lon="1.5831">
        <ele>1240.72</ele>
        <time>2016-12-18T08:58:50Z</time>
      </trkpt>
      <trkpt lat="42.76493" lon="1.5833">
        <ele>1245.04</ele>
        <time>2016-12-18T09:00:27Z</time>
      </trkpt>
      <trkpt lat="42.76489" lon="1.58369">
        <ele>1251.29</ele>
        <time>2016-12-18T09:01:04Z</time>
      </trkpt>
      <trkpt lat="42.76485" lon="1.58388">
        <ele>1256.1</ele>
        <time>2016-12-18T09:01:26Z</time>
      </trkpt>
      <trkpt lat="42.76481" lon="1.58408">
        <ele>1259.46</ele>
        <time>2016-12-18T09:01:45Z</time>
      </trkpt>
      <trkpt lat="42.76474" lon="1.58432">
        <ele>1264.27</ele>
        <time>2016-12-18T09:02:12Z</time>
      </trkpt>
      <trkpt lat="42.7646" lon="1.5845">
        <ele>1266.67</ele>
        <time>2016-12-18T09:02:35Z</time>
      </trkpt>
      <trkpt lat="42.76451" lon="1.58472">
        <ele>1270.04</ele>
        <time>2016-12-18T09:02:58Z</time>
      </trkpt>
      <trkpt lat="42.76438" lon="1.58492">
        <ele>1273.4</ele>
        <time>2016-12-18T09:03:20Z</time>
      </trkpt>
      <trkpt lat="42.76429" lon="1.5851">
        <ele>1276.77</ele>
        <time>2016-12-18T09:03:41Z</time>
      </trkpt>
      <trkpt lat="42.76417" lon="1.58526">
        <ele>1279.65</ele>
        <time>2016-12-18T09:04:03Z</time>
      </trkpt>
      <trkpt lat="42.76398" lon="1.58538">
        <ele>1284.46</ele>
        <time>2016-12-18T09:04:37Z</time>
      </trkpt>
      <trkpt lat="42.76378" lon="1.58557">
        <ele>1290.71</ele>
        <time>2016-12-18T09:05:16Z</time>
      </trkpt>
      <trkpt lat="42.76358" lon="1.58567">
        <ele>1296.96</ele>
        <time>2016-12-18T09:05:58Z</time>
      </trkpt>
      <trkpt lat="42.76337" lon="1.58571">
        <ele>1302.72</ele>
        <time>2016-12-18T09:06:42Z</time>
      </trkpt>
      <trkpt lat="42.76319" lon="1.58576">
        <ele>1307.05</ele>
        <time>2016-12-18T09:07:10Z</time>
      </trkpt>
      <trkpt lat="42.76302" lon="1.58583">
        <ele>1312.82</ele>
        <time>2016-12-18T09:07:50Z</time>
      </trkpt>
      <trkpt lat="42.76312" lon="1.58613">
        <ele>1319.55</ele>
        <time>2016-12-18T09:08:32Z</time>
      </trkpt>
      <trkpt lat="42.76324" lon="1.58627">
        <ele>1322.91</ele>
        <time>2016-12-18T09:08:54Z</time>
      </trkpt>
      <trkpt lat="42.76335" lon="1.58648">
        <ele>1325.31</ele>
        <time>2016-12-18T09:09:25Z</time>
      </trkpt>
      <trkpt lat="42.76362" lon="1.58668">
        <ele>1330.12</ele>
        <time>2016-12-18T09:10:11Z</time>
      </trkpt>
      <trkpt lat="42.76385" lon="1.58682">
        <ele>1334.45</ele>
        <time>2016-12-18T09:11:46Z</time>
      </trkpt>
      <trkpt lat="42.76399" lon="1.58705">
        <ele>1342.14</ele>
        <time>2016-12-18T09:12:29Z</time>
      </trkpt>
      <trkpt lat="42.76417" lon="1.58727">
        <ele>1347.91</ele>
        <time>2016-12-18T09:13:06Z</time>
      </trkpt>
      <trkpt lat="42.76429" lon="1.58743">
        <ele>1350.79</ele>
        <time>2016-12-18T09:13:30Z</time>
      </trkpt>
      <trkpt lat="42.76444" lon="1.58757">
        <ele>1353.67</ele>
        <time>2016-12-18T09:13:59Z</time>
      </trkpt>
      <trkpt lat="42.76451" lon="1.58772">
        <ele>1356.56</ele>
        <time>2016-12-18T09:14:18Z</time>
      </trkpt>
      <trkpt lat="42.76459" lon="1.58785">
        <ele>1359.92</ele>
        <time>2016-12-18T09:14:37Z</time>
      </trkpt>
      <trkpt lat="42.76469" lon="1.58803">
        <ele>1362.33</ele>
        <time>2016-12-18T09:14:56Z</time>
      </trkpt>
      <trkpt lat="42.76475" lon="1.58822">
        <ele>1365.69</ele>
        <time>2016-12-18T09:15:17Z</time>
      </trkpt>
      <trkpt lat="42.7648" lon="1.5884">
        <ele>1368.09</ele>
        <time>2016-12-18T09:15:37Z</time>
      </trkpt>
      <trkpt lat="42.76484" lon="1.58856">
        <ele>1371.94</ele>
        <time>2016-12-18T09:15:59Z</time>
      </trkpt>
      <trkpt lat="42.76478" lon="1.58877">
        <ele>1376.75</ele>
        <time>2016-12-18T09:16:29Z</time>
      </trkpt>
      <trkpt lat="42.76477" lon="1.58899">
        <ele>1382.03</ele>
        <time>2016-12-18T09:16:57Z</time>
      </trkpt>
      <trkpt lat="42.76474" lon="1.58922">
        <ele>1386.36</ele>
        <time>2016-12-18T09:17:24Z</time>
      </trkpt>
      <trkpt lat="42.76469" lon="1.58932">
        <ele>1389.72</ele>
        <time>2016-12-18T09:18:03Z</time>
      </trkpt>
      <trkpt lat="42.76465" lon="1.58929">
        <ele>1393.57</ele>
        <time>2016-12-18T09:19:10Z</time>
      </trkpt>
      <trkpt lat="42.76449" lon="1.58923">
        <ele>1400.78</ele>
        <time>2016-12-18T09:19:54Z</time>
      </trkpt>
      <trkpt lat="42.76438" lon="1.58903">
        <ele>1407.03</ele>
        <time>2016-12-18T09:20:31Z</time>
      </trkpt>
      <trkpt lat="42.76423" lon="1.58912">
        <ele>1411.83</ele>
        <time>2016-12-18T09:21:01Z</time>
      </trkpt>
      <trkpt lat="42.76404" lon="1.58911">
        <ele>1419.04</ele>
        <time>2016-12-18T09:21:50Z</time>
      </trkpt>
      <trkpt lat="42.76394" lon="1.5892">
        <ele>1426.73</ele>
        <time>2016-12-18T09:22:41Z</time>
      </trkpt>
      <trkpt lat="42.76399" lon="1.58939">
        <ele>1432.98</ele>
        <time>2016-12-18T09:23:20Z</time>
      </trkpt>
      <trkpt lat="42.764" lon="1.58958">
        <ele>1437.31</ele>
        <time>2016-12-18T09:23:50Z</time>
      </trkpt>
      <trkpt lat="42.76394" lon="1.58955">
        <ele>1439.71</ele>
        <time>2016-12-18T09:24:08Z</time>
      </trkpt>
      <trkpt lat="42.76384" lon="1.58957">
        <ele>1442.6</ele>
        <time>2016-12-18T09:24:27Z</time>
      </trkpt>
      <trkpt lat="42.76375" lon="1.5896">
        <ele>1445</ele>
        <time>2016-12-18T09:24:45Z</time>
      </trkpt>
      <trkpt lat="42.76365" lon="1.58961">
        <ele>1446.44</ele>
        <time>2016-12-18T09:25:07Z</time>
      </trkpt>
      <trkpt lat="42.76355" lon="1.58966">
        <ele>1448.36</ele>
        <time>2016-12-18T09:25:40Z</time>
      </trkpt>
      <trkpt lat="42.76346" lon="1.5897">
        <ele>1449.81</ele>
        <time>2016-12-18T09:25:55Z</time>
      </trkpt>
      <trkpt lat="42.76337" lon="1.58979">
        <ele>1450.77</ele>
        <time>2016-12-18T09:26:10Z</time>
      </trkpt>
      <trkpt lat="42.76327" lon="1.58985">
        <ele>1453.17</ele>
        <time>2016-12-18T09:26:27Z</time>
      </trkpt>
      <trkpt lat="42.76315" lon="1.58983">
        <ele>1457.5</ele>
        <time>2016-12-18T09:26:56Z</time>
      </trkpt>
      <trkpt lat="42.76303" lon="1.58989">
        <ele>1460.38</ele>
        <time>2016-12-18T09:27:18Z</time>
      </trkpt>
      <trkpt lat="42.76296" lon="1.58993">
        <ele>1463.74</ele>
        <time>2016-12-18T09:27:57Z</time>
      </trkpt>
      <trkpt lat="42.76283" lon="1.59003">
        <ele>1467.59</ele>
        <time>2016-12-18T09:28:20Z</time>
      </trkpt>
      <trkpt lat="42.76272" lon="1.59011">
        <ele>1472.4</ele>
        <time>2016-12-18T09:28:51Z</time>
      </trkpt>
      <trkpt lat="42.76263" lon="1.59009">
        <ele>1477.2</ele>
        <time>2016-12-18T09:29:17Z</time>
      </trkpt>
      <trkpt lat="42.76254" lon="1.59015">
        <ele>1481.05</ele>
        <time>2016-12-18T09:29:44Z</time>
      </trkpt>
      <trkpt lat="42.76244" lon="1.5901">
        <ele>1484.41</ele>
        <time>2016-12-18T09:30:05Z</time>
      </trkpt>
      <trkpt lat="42.76237" lon="1.59018">
        <ele>1487.78</ele>
        <time>2016-12-18T09:30:27Z</time>
      </trkpt>
      <trkpt lat="42.76229" lon="1.59029">
        <ele>1489.7</ele>
        <time>2016-12-18T09:30:44Z</time>
      </trkpt>
      <trkpt lat="42.76221" lon="1.59037">
        <ele>1490.66</ele>
        <time>2016-12-18T09:30:59Z</time>
      </trkpt>
      <trkpt lat="42.76211" lon="1.59042">
        <ele>1492.58</ele>
        <time>2016-12-18T09:31:13Z</time>
      </trkpt>
      <trkpt lat="42.76202" lon="1.59048">
        <ele>1494.03</ele>
        <time>2016-12-18T09:31:27Z</time>
      </trkpt>
      <trkpt lat="42.76193" lon="1.59044">
        <ele>1495.47</ele>
        <time>2016-12-18T09:31:42Z</time>
      </trkpt>
      <trkpt lat="42.76188" lon="1.59038">
        <ele>1496.91</ele>
        <time>2016-12-18T09:33:26Z</time>
      </trkpt>
      <trkpt lat="42.76178" lon="1.59041">
        <ele>1497.87</ele>
        <time>2016-12-18T09:33:41Z</time>
      </trkpt>
      <trkpt lat="42.76168" lon="1.59042">
        <ele>1501.72</ele>
        <time>2016-12-18T09:33:57Z</time>
      </trkpt>
      <trkpt lat="42.76159" lon="1.59037">
        <ele>1504.6</ele>
        <time>2016-12-18T09:34:18Z</time>
      </trkpt>
      <trkpt lat="42.76149" lon="1.59039">
        <ele>1507.97</ele>
        <time>2016-12-18T09:34:37Z</time>
      </trkpt>
      <trkpt lat="42.76148" lon="1.59055">
        <ele>1511.33</ele>
        <time>2016-12-18T09:34:56Z</time>
      </trkpt>
      <trkpt lat="42.76146" lon="1.59068">
        <ele>1514.69</ele>
        <time>2016-12-18T09:35:17Z</time>
      </trkpt>
      <trkpt lat="42.76141" lon="1.59084">
        <ele>1516.62</ele>
        <time>2016-12-18T09:35:35Z</time>
      </trkpt>
      <trkpt lat="42.76134" lon="1.59096">
        <ele>1519.02</ele>
        <time>2016-12-18T09:35:52Z</time>
      </trkpt>
      <trkpt lat="42.76124" lon="1.59099">
        <ele>1519.98</ele>
        <time>2016-12-18T09:36:07Z</time>
      </trkpt>
      <trkpt lat="42.76114" lon="1.59099">
        <ele>1523.35</ele>
        <time>2016-12-18T09:36:23Z</time>
      </trkpt>
      <trkpt lat="42.76103" lon="1.59102">
        <ele>1525.75</ele>
        <time>2016-12-18T09:36:50Z</time>
      </trkpt>
      <trkpt lat="42.76094" lon="1.59104">
        <ele>1528.15</ele>
        <time>2016-12-18T09:37:14Z</time>
      </trkpt>
      <trkpt lat="42.76083" lon="1.59107">
        <ele>1532</ele>
        <time>2016-12-18T09:38:25Z</time>
      </trkpt>
      <trkpt lat="42.76071" lon="1.59107">
        <ele>1535.36</ele>
        <time>2016-12-18T09:38:46Z</time>
      </trkpt>
      <trkpt lat="42.7606" lon="1.59107">
        <ele>1539.21</ele>
        <time>2016-12-18T09:39:04Z</time>
      </trkpt>
      <trkpt lat="42.7605" lon="1.59103">
        <ele>1542.09</ele>
        <time>2016-12-18T09:39:25Z</time>
      </trkpt>
      <trkpt lat="42.76043" lon="1.59115">
        <ele>1546.9</ele>
        <time>2016-12-18T09:39:51Z</time>
      </trkpt>
      <trkpt lat="42.76033" lon="1.59113">
        <ele>1551.22</ele>
        <time>2016-12-18T09:40:17Z</time>
      </trkpt>
      <trkpt lat="42.76024" lon="1.59116">
        <ele>1554.11</ele>
        <time>2016-12-18T09:42:21Z</time>
      </trkpt>
      <trkpt lat="42.76015" lon="1.59119">
        <ele>1557.47</ele>
        <time>2016-12-18T09:42:38Z</time>
      </trkpt>
      <trkpt lat="42.76009" lon="1.59127">
        <ele>1559.88</ele>
        <time>2016-12-18T09:43:46Z</time>
      </trkpt>
      <trkpt lat="42.75998" lon="1.5913">
        <ele>1563.24</ele>
        <time>2016-12-18T09:44:04Z</time>
      </trkpt>
      <trkpt lat="42.75988" lon="1.59132">
        <ele>1568.05</ele>
        <time>2016-12-18T09:44:28Z</time>
      </trkpt>
      <trkpt lat="42.7598" lon="1.59133">
        <ele>1572.85</ele>
        <time>2016-12-18T09:44:54Z</time>
      </trkpt>
      <trkpt lat="42.75975" lon="1.59144">
        <ele>1577.18</ele>
        <time>2016-12-18T09:45:20Z</time>
      </trkpt>
      <trkpt lat="42.75966" lon="1.59146">
        <ele>1581.51</ele>
        <time>2016-12-18T09:45:44Z</time>
      </trkpt>
      <trkpt lat="42.75958" lon="1.59148">
        <ele>1584.87</ele>
        <time>2016-12-18T09:46:09Z</time>
      </trkpt>
      <trkpt lat="42.7595" lon="1.59149">
        <ele>1586.79</ele>
        <time>2016-12-18T09:46:25Z</time>
      </trkpt>
      <trkpt lat="42.75952" lon="1.59153">
        <ele>1589.68</ele>
        <time>2016-12-18T09:50:02Z</time>
      </trkpt>
      <trkpt lat="42.75949" lon="1.59159">
        <ele>1589.68</ele>
        <time>2016-12-18T09:51:42Z</time>
      </trkpt>
      <trkpt lat="42.75942" lon="1.59164">
        <ele>1590.64</ele>
        <time>2016-12-18T09:51:58Z</time>
      </trkpt>
      <trkpt lat="42.75933" lon="1.59172">
        <ele>1591.6</ele>
        <time>2016-12-18T09:52:11Z</time>
      </trkpt>
      <trkpt lat="42.75926" lon="1.59177">
        <ele>1593.52</ele>
        <time>2016-12-18T09:52:23Z</time>
      </trkpt>
      <trkpt lat="42.75916" lon="1.59181">
        <ele>1595.93</ele>
        <time>2016-12-18T09:52:37Z</time>
      </trkpt>
      <trkpt lat="42.75908" lon="1.59186">
        <ele>1599.29</ele>
        <time>2016-12-18T09:52:57Z</time>
      </trkpt>
      <trkpt lat="42.75902" lon="1.59195">
        <ele>1602.66</ele>
        <time>2016-12-18T09:53:15Z</time>
      </trkpt>
      <trkpt lat="42.75894" lon="1.592">
        <ele>1606.02</ele>
        <time>2016-12-18T09:53:33Z</time>
      </trkpt>
      <trkpt lat="42.75885" lon="1.59204">
        <ele>1608.9</ele>
        <time>2016-12-18T09:53:51Z</time>
      </trkpt>
      <trkpt lat="42.75879" lon="1.59212">
        <ele>1611.79</ele>
        <time>2016-12-18T09:54:08Z</time>
      </trkpt>
      <trkpt lat="42.75872" lon="1.5922">
        <ele>1614.19</ele>
        <time>2016-12-18T09:54:25Z</time>
      </trkpt>
      <trkpt lat="42.75866" lon="1.59228">
        <ele>1616.59</ele>
        <time>2016-12-18T09:54:41Z</time>
      </trkpt>
      <trkpt lat="42.75858" lon="1.59235">
        <ele>1619</ele>
        <time>2016-12-18T09:54:56Z</time>
      </trkpt>
      <trkpt lat="42.75851" lon="1.59241">
        <ele>1622.36</ele>
        <time>2016-12-18T09:55:13Z</time>
      </trkpt>
      <trkpt lat="42.75844" lon="1.59247">
        <ele>1624.28</ele>
        <time>2016-12-18T09:55:28Z</time>
      </trkpt>
      <trkpt lat="42.75838" lon="1.59254">
        <ele>1627.65</ele>
        <time>2016-12-18T09:55:43Z</time>
      </trkpt>
      <trkpt lat="42.75831" lon="1.59259">
        <ele>1629.09</ele>
        <time>2016-12-18T09:55:57Z</time>
      </trkpt>
      <trkpt lat="42.75823" lon="1.59267">
        <ele>1631.01</ele>
        <time>2016-12-18T09:56:10Z</time>
      </trkpt>
      <trkpt lat="42.75816" lon="1.59275">
        <ele>1632.94</ele>
        <time>2016-12-18T09:56:23Z</time>
      </trkpt>
      <trkpt lat="42.75809" lon="1.59282">
        <ele>1634.86</ele>
        <time>2016-12-18T09:56:38Z</time>
      </trkpt>
      <trkpt lat="42.75803" lon="1.59293">
        <ele>1637.26</ele>
        <time>2016-12-18T09:56:52Z</time>
      </trkpt>
      <trkpt lat="42.75796" lon="1.59303">
        <ele>1638.22</ele>
        <time>2016-12-18T09:57:04Z</time>
      </trkpt>
      <trkpt lat="42.75791" lon="1.59313">
        <ele>1640.15</ele>
        <time>2016-12-18T09:57:18Z</time>
      </trkpt>
      <trkpt lat="42.75785" lon="1.59323">
        <ele>1641.59</ele>
        <time>2016-12-18T09:57:30Z</time>
      </trkpt>
      <trkpt lat="42.75778" lon="1.59333">
        <ele>1643.99</ele>
        <time>2016-12-18T09:57:42Z</time>
      </trkpt>
      <trkpt lat="42.75772" lon="1.59343">
        <ele>1645.43</ele>
        <time>2016-12-18T09:57:54Z</time>
      </trkpt>
      <trkpt lat="42.75765" lon="1.59353">
        <ele>1646.4</ele>
        <time>2016-12-18T09:58:07Z</time>
      </trkpt>
      <trkpt lat="42.7576" lon="1.59363">
        <ele>1647.84</ele>
        <time>2016-12-18T09:58:18Z</time>
      </trkpt>
      <trkpt lat="42.75756" lon="1.59376">
        <ele>1649.28</ele>
        <time>2016-12-18T09:58:29Z</time>
      </trkpt>
      <trkpt lat="42.75749" lon="1.59384">
        <ele>1649.28</ele>
        <time>2016-12-18T09:58:40Z</time>
      </trkpt>
      <trkpt lat="42.75742" lon="1.59392">
        <ele>1649.76</ele>
        <time>2016-12-18T09:58:56Z</time>
      </trkpt>
      <trkpt lat="42.75734" lon="1.594">
        <ele>1650.24</ele>
        <time>2016-12-18T09:59:07Z</time>
      </trkpt>
      <trkpt lat="42.75728" lon="1.5941">
        <ele>1650.72</ele>
        <time>2016-12-18T09:59:16Z</time>
      </trkpt>
      <trkpt lat="42.75722" lon="1.59421">
        <ele>1651.2</ele>
        <time>2016-12-18T09:59:26Z</time>
      </trkpt>
      <trkpt lat="42.75717" lon="1.59432">
        <ele>1651.2</ele>
        <time>2016-12-18T09:59:34Z</time>
      </trkpt>
      <trkpt lat="42.75712" lon="1.59444">
        <ele>1651.2</ele>
        <time>2016-12-18T09:59:42Z</time>
      </trkpt>
      <trkpt lat="42.75706" lon="1.59454">
        <ele>1651.2</ele>
        <time>2016-12-18T09:59:50Z</time>
      </trkpt>
      <trkpt lat="42.75702" lon="1.59466">
        <ele>1651.2</ele>
        <time>2016-12-18T09:59:59Z</time>
      </trkpt>
      <trkpt lat="42.75697" lon="1.59476">
        <ele>1652.64</ele>
        <time>2016-12-18T10:00:08Z</time>
      </trkpt>
      <trkpt lat="42.75692" lon="1.59487">
        <ele>1654.57</ele>
        <time>2016-12-18T10:00:18Z</time>
      </trkpt>
      <trkpt lat="42.75686" lon="1.59498">
        <ele>1656.01</ele>
        <time>2016-12-18T10:00:29Z</time>
      </trkpt>
      <trkpt lat="42.75681" lon="1.59508">
        <ele>1659.37</ele>
        <time>2016-12-18T10:00:44Z</time>
      </trkpt>
      <trkpt lat="42.75675" lon="1.59518">
        <ele>1662.26</ele>
        <time>2016-12-18T10:01:01Z</time>
      </trkpt>
      <trkpt lat="42.75669" lon="1.59528">
        <ele>1665.62</ele>
        <time>2016-12-18T10:01:18Z</time>
      </trkpt>
      <trkpt lat="42.75664" lon="1.59537">
        <ele>1667.06</ele>
        <time>2016-12-18T10:01:32Z</time>
      </trkpt>
      <trkpt lat="42.75661" lon="1.59551">
        <ele>1668.51</ele>
        <time>2016-12-18T10:01:45Z</time>
      </trkpt>
      <trkpt lat="42.75655" lon="1.59562">
        <ele>1670.43</ele>
        <time>2016-12-18T10:01:58Z</time>
      </trkpt>
      <trkpt lat="42.7565" lon="1.59575">
        <ele>1670.91</ele>
        <time>2016-12-18T10:02:10Z</time>
      </trkpt>
      <trkpt lat="42.75647" lon="1.59586">
        <ele>1672.83</ele>
        <time>2016-12-18T10:02:21Z</time>
      </trkpt>
      <trkpt lat="42.75642" lon="1.59598">
        <ele>1673.79</ele>
        <time>2016-12-18T10:02:34Z</time>
      </trkpt>
      <trkpt lat="42.75638" lon="1.59609">
        <ele>1675.72</ele>
        <time>2016-12-18T10:02:47Z</time>
      </trkpt>
      <trkpt lat="42.75634" lon="1.5962">
        <ele>1678.12</ele>
        <time>2016-12-18T10:03:00Z</time>
      </trkpt>
      <trkpt lat="42.7563" lon="1.59631">
        <ele>1680.52</ele>
        <time>2016-12-18T10:03:14Z</time>
      </trkpt>
      <trkpt lat="42.75625" lon="1.59642">
        <ele>1682.44</ele>
        <time>2016-12-18T10:03:28Z</time>
      </trkpt>
      <trkpt lat="42.75619" lon="1.59651">
        <ele>1684.37</ele>
        <time>2016-12-18T10:03:43Z</time>
      </trkpt>
      <trkpt lat="42.75613" lon="1.59663">
        <ele>1687.25</ele>
        <time>2016-12-18T10:04:01Z</time>
      </trkpt>
      <trkpt lat="42.75607" lon="1.59672">
        <ele>1690.14</ele>
        <time>2016-12-18T10:04:17Z</time>
      </trkpt>
      <trkpt lat="42.75601" lon="1.59682">
        <ele>1692.54</ele>
        <time>2016-12-18T10:04:34Z</time>
      </trkpt>
      <trkpt lat="42.75596" lon="1.59693">
        <ele>1695.42</ele>
        <time>2016-12-18T10:04:53Z</time>
      </trkpt>
      <trkpt lat="42.75592" lon="1.59704">
        <ele>1698.31</ele>
        <time>2016-12-18T10:05:08Z</time>
      </trkpt>
      <trkpt lat="42.75589" lon="1.59715">
        <ele>1699.27</ele>
        <time>2016-12-18T10:05:20Z</time>
      </trkpt>
      <trkpt lat="42.75587" lon="1.59728">
        <ele>1700.23</ele>
        <time>2016-12-18T10:05:31Z</time>
      </trkpt>
      <trkpt lat="42.75584" lon="1.59739">
        <ele>1702.15</ele>
        <time>2016-12-18T10:05:43Z</time>
      </trkpt>
      <trkpt lat="42.75582" lon="1.59751">
        <ele>1704.07</ele>
        <time>2016-12-18T10:05:56Z</time>
      </trkpt>
      <trkpt lat="42.7558" lon="1.59763">
        <ele>1706</ele>
        <time>2016-12-18T10:06:08Z</time>
      </trkpt>
      <trkpt lat="42.75578" lon="1.59776">
        <ele>1707.44</ele>
        <time>2016-12-18T10:06:19Z</time>
      </trkpt>
      <trkpt lat="42.75577" lon="1.59789">
        <ele>1708.88</ele>
        <time>2016-12-18T10:06:30Z</time>
      </trkpt>
      <trkpt lat="42.75575" lon="1.59799">
        <ele>1710.32</ele>
        <time>2016-12-18T10:06:40Z</time>
      </trkpt>
      <trkpt lat="42.75574" lon="1.59811">
        <ele>1711.28</ele>
        <time>2016-12-18T10:06:51Z</time>
      </trkpt>
      <trkpt lat="42.75573" lon="1.59824">
        <ele>1712.25</ele>
        <time>2016-12-18T10:07:01Z</time>
      </trkpt>
      <trkpt lat="42.75572" lon="1.59838">
        <ele>1713.21</ele>
        <time>2016-12-18T10:07:12Z</time>
      </trkpt>
      <trkpt lat="42.75569" lon="1.5985">
        <ele>1714.17</ele>
        <time>2016-12-18T10:07:22Z</time>
      </trkpt>
      <trkpt lat="42.75566" lon="1.59859">
        <ele>1715.61</ele>
        <time>2016-12-18T10:07:35Z</time>
      </trkpt>
      <trkpt lat="42.75561" lon="1.5987">
        <ele>1714.65</ele>
        <time>2016-12-18T10:07:44Z</time>
      </trkpt>
      <trkpt lat="42.75557" lon="1.59882">
        <ele>1714.65</ele>
        <time>2016-12-18T10:07:53Z</time>
      </trkpt>
      <trkpt lat="42.75552" lon="1.59892">
        <ele>1712.25</ele>
        <time>2016-12-18T10:08:04Z</time>
      </trkpt>
      <trkpt lat="42.75544" lon="1.59899">
        <ele>1709.84</ele>
        <time>2016-12-18T10:08:15Z</time>
      </trkpt>
      <trkpt lat="42.75537" lon="1.59907">
        <ele>1707.92</ele>
        <time>2016-12-18T10:08:27Z</time>
      </trkpt>
      <trkpt lat="42.75533" lon="1.59917">
        <ele>1704.55</ele>
        <time>2016-12-18T10:08:42Z</time>
      </trkpt>
      <trkpt lat="42.75528" lon="1.59929">
        <ele>1701.67</ele>
        <time>2016-12-18T10:08:53Z</time>
      </trkpt>
      <trkpt lat="42.7552" lon="1.59937">
        <ele>1698.79</ele>
        <time>2016-12-18T10:09:03Z</time>
      </trkpt>
      <trkpt lat="42.75513" lon="1.59946">
        <ele>1696.38</ele>
        <time>2016-12-18T10:09:14Z</time>
      </trkpt>
      <trkpt lat="42.75508" lon="1.59957">
        <ele>1694.46</ele>
        <time>2016-12-18T10:09:25Z</time>
      </trkpt>
      <trkpt lat="42.75504" lon="1.59968">
        <ele>1692.06</ele>
        <time>2016-12-18T10:09:35Z</time>
      </trkpt>
      <trkpt lat="42.75498" lon="1.5998">
        <ele>1691.1</ele>
        <time>2016-12-18T10:09:45Z</time>
      </trkpt>
      <trkpt lat="42.75494" lon="1.59992">
        <ele>1691.1</ele>
        <time>2016-12-18T10:09:54Z</time>
      </trkpt>
      <trkpt lat="42.7549" lon="1.60004">
        <ele>1693.02</ele>
        <time>2016-12-18T10:10:06Z</time>
      </trkpt>
      <trkpt lat="42.75486" lon="1.60012">
        <ele>1695.9</ele>
        <time>2016-12-18T10:10:22Z</time>
      </trkpt>
      <trkpt lat="42.75486" lon="1.60026">
        <ele>1696.86</ele>
        <time>2016-12-18T10:10:35Z</time>
      </trkpt>
      <trkpt lat="42.75484" lon="1.60038">
        <ele>1697.34</ele>
        <time>2016-12-18T10:10:45Z</time>
      </trkpt>
      <trkpt lat="42.75482" lon="1.6005">
        <ele>1698.79</ele>
        <time>2016-12-18T10:10:57Z</time>
      </trkpt>
      <trkpt lat="42.75481" lon="1.60063">
        <ele>1700.23</ele>
        <time>2016-12-18T10:11:10Z</time>
      </trkpt>
      <trkpt lat="42.75477" lon="1.60074">
        <ele>1701.67</ele>
        <time>2016-12-18T10:11:24Z</time>
      </trkpt>
      <trkpt lat="42.75475" lon="1.60085">
        <ele>1703.11</ele>
        <time>2016-12-18T10:11:35Z</time>
      </trkpt>
      <trkpt lat="42.75473" lon="1.60097">
        <ele>1704.07</ele>
        <time>2016-12-18T10:11:45Z</time>
      </trkpt>
      <trkpt lat="42.75471" lon="1.60109">
        <ele>1706</ele>
        <time>2016-12-18T10:11:57Z</time>
      </trkpt>
      <trkpt lat="42.7547" lon="1.60122">
        <ele>1707.44</ele>
        <time>2016-12-18T10:12:08Z</time>
      </trkpt>
      <trkpt lat="42.75467" lon="1.60134">
        <ele>1708.88</ele>
        <time>2016-12-18T10:12:18Z</time>
      </trkpt>
      <trkpt lat="42.75467" lon="1.60146">
        <ele>1709.84</ele>
        <time>2016-12-18T10:12:28Z</time>
      </trkpt>
      <trkpt lat="42.75467" lon="1.60157">
        <ele>1710.32</ele>
        <time>2016-12-18T10:12:37Z</time>
      </trkpt>
      <trkpt lat="42.75465" lon="1.6017">
        <ele>1711.28</ele>
        <time>2016-12-18T10:12:46Z</time>
      </trkpt>
      <trkpt lat="42.75462" lon="1.60181">
        <ele>1712.25</ele>
        <time>2016-12-18T10:12:55Z</time>
      </trkpt>
      <trkpt lat="42.75459" lon="1.60193">
        <ele>1713.21</ele>
        <time>2016-12-18T10:13:05Z</time>
      </trkpt>
      <trkpt lat="42.75455" lon="1.60205">
        <ele>1715.13</ele>
        <time>2016-12-18T10:13:16Z</time>
      </trkpt>
      <trkpt lat="42.75451" lon="1.60217">
        <ele>1717.05</ele>
        <time>2016-12-18T10:13:28Z</time>
      </trkpt>
      <trkpt lat="42.75446" lon="1.60228">
        <ele>1718.49</ele>
        <time>2016-12-18T10:13:40Z</time>
      </trkpt>
      <trkpt lat="42.75442" lon="1.60239">
        <ele>1720.9</ele>
        <time>2016-12-18T10:13:53Z</time>
      </trkpt>
      <trkpt lat="42.75438" lon="1.60249">
        <ele>1722.82</ele>
        <time>2016-12-18T10:14:07Z</time>
      </trkpt>
      <trkpt lat="42.75435" lon="1.60262">
        <ele>1725.22</ele>
        <time>2016-12-18T10:14:23Z</time>
      </trkpt>
      <trkpt lat="42.7543" lon="1.60273">
        <ele>1726.67</ele>
        <time>2016-12-18T10:14:37Z</time>
      </trkpt>
      <trkpt lat="42.75428" lon="1.60284">
        <ele>1728.59</ele>
        <time>2016-12-18T10:14:52Z</time>
      </trkpt>
      <trkpt lat="42.75426" lon="1.60297">
        <ele>1731.95</ele>
        <time>2016-12-18T10:15:08Z</time>
      </trkpt>
      <trkpt lat="42.75423" lon="1.60306">
        <ele>1733.39</ele>
        <time>2016-12-18T10:16:13Z</time>
      </trkpt>
      <trkpt lat="42.7542" lon="1.60317">
        <ele>1735.8</ele>
        <time>2016-12-18T10:16:25Z</time>
      </trkpt>
      <trkpt lat="42.75416" lon="1.60327">
        <ele>1738.2</ele>
        <time>2016-12-18T10:16:38Z</time>
      </trkpt>
      <trkpt lat="42.75412" lon="1.60338">
        <ele>1740.12</ele>
        <time>2016-12-18T10:16:53Z</time>
      </trkpt>
      <trkpt lat="42.7541" lon="1.60351">
        <ele>1742.53</ele>
        <time>2016-12-18T10:17:08Z</time>
      </trkpt>
      <trkpt lat="42.75406" lon="1.60362">
        <ele>1744.45</ele>
        <time>2016-12-18T10:17:22Z</time>
      </trkpt>
      <trkpt lat="42.75402" lon="1.60374">
        <ele>1746.37</ele>
        <time>2016-12-18T10:17:36Z</time>
      </trkpt>
      <trkpt lat="42.75398" lon="1.60385">
        <ele>1748.78</ele>
        <time>2016-12-18T10:17:51Z</time>
      </trkpt>
      <trkpt lat="42.75395" lon="1.60396">
        <ele>1751.18</ele>
        <time>2016-12-18T10:18:07Z</time>
      </trkpt>
      <trkpt lat="42.75392" lon="1.60406">
        <ele>1755.02</ele>
        <time>2016-12-18T10:18:22Z</time>
      </trkpt>
      <trkpt lat="42.75389" lon="1.60417">
        <ele>1756.47</ele>
        <time>2016-12-18T10:18:36Z</time>
      </trkpt>
      <trkpt lat="42.75385" lon="1.60429">
        <ele>1758.39</ele>
        <time>2016-12-18T10:18:51Z</time>
      </trkpt>
      <trkpt lat="42.75383" lon="1.6044">
        <ele>1760.31</ele>
        <time>2016-12-18T10:19:03Z</time>
      </trkpt>
      <trkpt lat="42.75381" lon="1.60452">
        <ele>1761.27</ele>
        <time>2016-12-18T10:19:16Z</time>
      </trkpt>
      <trkpt lat="42.75377" lon="1.60464">
        <ele>1761.75</ele>
        <time>2016-12-18T10:19:28Z</time>
      </trkpt>
      <trkpt lat="42.75373" lon="1.60476">
        <ele>1763.68</ele>
        <time>2016-12-18T10:19:40Z</time>
      </trkpt>
      <trkpt lat="42.75368" lon="1.60488">
        <ele>1766.08</ele>
        <time>2016-12-18T10:19:52Z</time>
      </trkpt>
      <trkpt lat="42.75365" lon="1.605">
        <ele>1767.04</ele>
        <time>2016-12-18T10:20:03Z</time>
      </trkpt>
      <trkpt lat="42.7536" lon="1.6051">
        <ele>1769.44</ele>
        <time>2016-12-18T10:20:15Z</time>
      </trkpt>
      <trkpt lat="42.75355" lon="1.60522">
        <ele>1771.85</ele>
        <time>2016-12-18T10:20:28Z</time>
      </trkpt>
      <trkpt lat="42.75353" lon="1.60534">
        <ele>1774.73</ele>
        <time>2016-12-18T10:20:42Z</time>
      </trkpt>
      <trkpt lat="42.75346" lon="1.60544">
        <ele>1776.65</ele>
        <time>2016-12-18T10:20:57Z</time>
      </trkpt>
      <trkpt lat="42.75342" lon="1.60556">
        <ele>1780.02</ele>
        <time>2016-12-18T10:21:13Z</time>
      </trkpt>
      <trkpt lat="42.75338" lon="1.60568">
        <ele>1782.42</ele>
        <time>2016-12-18T10:21:29Z</time>
      </trkpt>
      <trkpt lat="42.75334" lon="1.60579">
        <ele>1784.34</ele>
        <time>2016-12-18T10:21:45Z</time>
      </trkpt>
      <trkpt lat="42.75328" lon="1.60589">
        <ele>1787.23</ele>
        <time>2016-12-18T10:21:59Z</time>
      </trkpt>
      <trkpt lat="42.75322" lon="1.60599">
        <ele>1789.15</ele>
        <time>2016-12-18T10:22:14Z</time>
      </trkpt>
      <trkpt lat="42.75315" lon="1.60609">
        <ele>1791.07</ele>
        <time>2016-12-18T10:22:30Z</time>
      </trkpt>
      <trkpt lat="42.75308" lon="1.60618">
        <ele>1793.96</ele>
        <time>2016-12-18T10:22:45Z</time>
      </trkpt>
      <trkpt lat="42.75304" lon="1.60629">
        <ele>1796.84</ele>
        <time>2016-12-18T10:23:01Z</time>
      </trkpt>
      <trkpt lat="42.75298" lon="1.60638">
        <ele>1799.73</ele>
        <time>2016-12-18T10:23:19Z</time>
      </trkpt>
      <trkpt lat="42.75295" lon="1.60651">
        <ele>1803.09</ele>
        <time>2016-12-18T10:23:37Z</time>
      </trkpt>
      <trkpt lat="42.75288" lon="1.60658">
        <ele>1806.45</ele>
        <time>2016-12-18T10:23:55Z</time>
      </trkpt>
      <trkpt lat="42.75282" lon="1.60667">
        <ele>1808.86</ele>
        <time>2016-12-18T10:24:13Z</time>
      </trkpt>
      <trkpt lat="42.75277" lon="1.60676">
        <ele>1811.74</ele>
        <time>2016-12-18T10:24:31Z</time>
      </trkpt>
      <trkpt lat="42.75272" lon="1.60685">
        <ele>1814.15</ele>
        <time>2016-12-18T10:24:50Z</time>
      </trkpt>
      <trkpt lat="42.75266" lon="1.60693">
        <ele>1817.99</ele>
        <time>2016-12-18T10:25:07Z</time>
      </trkpt>
      <trkpt lat="42.75261" lon="1.60702">
        <ele>1819.91</ele>
        <time>2016-12-18T10:25:26Z</time>
      </trkpt>
      <trkpt lat="42.75255" lon="1.60712">
        <ele>1822.8</ele>
        <time>2016-12-18T10:25:44Z</time>
      </trkpt>
      <trkpt lat="42.75249" lon="1.60721">
        <ele>1826.16</ele>
        <time>2016-12-18T10:26:00Z</time>
      </trkpt>
      <trkpt lat="42.75244" lon="1.60731">
        <ele>1827.6</ele>
        <time>2016-12-18T10:26:16Z</time>
      </trkpt>
      <trkpt lat="42.75238" lon="1.60738">
        <ele>1830.01</ele>
        <time>2016-12-18T10:26:44Z</time>
      </trkpt>
      <trkpt lat="42.75234" lon="1.60749">
        <ele>1833.37</ele>
        <time>2016-12-18T10:27:01Z</time>
      </trkpt>
      <trkpt lat="42.75229" lon="1.6076">
        <ele>1835.29</ele>
        <time>2016-12-18T10:27:19Z</time>
      </trkpt>
      <trkpt lat="42.75224" lon="1.6077">
        <ele>1836.26</ele>
        <time>2016-12-18T10:27:32Z</time>
      </trkpt>
      <trkpt lat="42.75219" lon="1.6078">
        <ele>1837.7</ele>
        <time>2016-12-18T10:27:43Z</time>
      </trkpt>
      <trkpt lat="42.75214" lon="1.6079">
        <ele>1839.14</ele>
        <time>2016-12-18T10:27:55Z</time>
      </trkpt>
      <trkpt lat="42.75209" lon="1.608">
        <ele>1841.06</ele>
        <time>2016-12-18T10:28:18Z</time>
      </trkpt>
      <trkpt lat="42.75204" lon="1.60811">
        <ele>1843.47</ele>
        <time>2016-12-18T10:28:31Z</time>
      </trkpt>
      <trkpt lat="42.75199" lon="1.60823">
        <ele>1845.39</ele>
        <time>2016-12-18T10:28:43Z</time>
      </trkpt>
      <trkpt lat="42.75194" lon="1.60834">
        <ele>1847.79</ele>
        <time>2016-12-18T10:28:56Z</time>
      </trkpt>
      <trkpt lat="42.75189" lon="1.60843">
        <ele>1848.75</ele>
        <time>2016-12-18T10:29:09Z</time>
      </trkpt>
      <trkpt lat="42.75182" lon="1.60852">
        <ele>1850.68</ele>
        <time>2016-12-18T10:29:22Z</time>
      </trkpt>
      <trkpt lat="42.75177" lon="1.60863">
        <ele>1853.08</ele>
        <time>2016-12-18T10:29:37Z</time>
      </trkpt>
      <trkpt lat="42.75172" lon="1.60873">
        <ele>1855.48</ele>
        <time>2016-12-18T10:29:51Z</time>
      </trkpt>
      <trkpt lat="42.75166" lon="1.60882">
        <ele>1857.4</ele>
        <time>2016-12-18T10:30:06Z</time>
      </trkpt>
      <trkpt lat="42.75161" lon="1.60892">
        <ele>1859.81</ele>
        <time>2016-12-18T10:30:23Z</time>
      </trkpt>
      <trkpt lat="42.75156" lon="1.60902">
        <ele>1861.73</ele>
        <time>2016-12-18T10:30:40Z</time>
      </trkpt>
      <trkpt lat="42.75149" lon="1.6091">
        <ele>1863.65</ele>
        <time>2016-12-18T10:30:56Z</time>
      </trkpt>
      <trkpt lat="42.75141" lon="1.60918">
        <ele>1866.54</ele>
        <time>2016-12-18T10:31:15Z</time>
      </trkpt>
      <trkpt lat="42.75136" lon="1.60928">
        <ele>1868.46</ele>
        <time>2016-12-18T10:31:32Z</time>
      </trkpt>
      <trkpt lat="42.75134" lon="1.60939">
        <ele>1871.82</ele>
        <time>2016-12-18T10:31:57Z</time>
      </trkpt>
      <trkpt lat="42.75131" lon="1.60949">
        <ele>1875.67</ele>
        <time>2016-12-18T10:32:19Z</time>
      </trkpt>
      <trkpt lat="42.75129" lon="1.60962">
        <ele>1879.03</ele>
        <time>2016-12-18T10:32:43Z</time>
      </trkpt>
      <trkpt lat="42.75129" lon="1.60973">
        <ele>1882.88</ele>
        <time>2016-12-18T10:33:05Z</time>
      </trkpt>
      <trkpt lat="42.75127" lon="1.60983">
        <ele>1885.76</ele>
        <time>2016-12-18T10:33:29Z</time>
      </trkpt>
      <trkpt lat="42.75121" lon="1.60991">
        <ele>1887.69</ele>
        <time>2016-12-18T10:33:51Z</time>
      </trkpt>
      <trkpt lat="42.75113" lon="1.60998">
        <ele>1892.49</ele>
        <time>2016-12-18T10:34:17Z</time>
      </trkpt>
      <trkpt lat="42.75109" lon="1.61008">
        <ele>1894.9</ele>
        <time>2016-12-18T10:34:36Z</time>
      </trkpt>
      <trkpt lat="42.75104" lon="1.61017">
        <ele>1898.26</ele>
        <time>2016-12-18T10:34:55Z</time>
      </trkpt>
      <trkpt lat="42.75101" lon="1.61028">
        <ele>1901.63</ele>
        <time>2016-12-18T10:35:13Z</time>
      </trkpt>
      <trkpt lat="42.75094" lon="1.61039">
        <ele>1902.59</ele>
        <time>2016-12-18T10:35:27Z</time>
      </trkpt>
      <trkpt lat="42.7509" lon="1.6105">
        <ele>1903.55</ele>
        <time>2016-12-18T10:35:38Z</time>
      </trkpt>
      <trkpt lat="42.75088" lon="1.61063">
        <ele>1904.51</ele>
        <time>2016-12-18T10:35:51Z</time>
      </trkpt>
      <trkpt lat="42.75083" lon="1.61075">
        <ele>1904.03</ele>
        <time>2016-12-18T10:36:01Z</time>
      </trkpt>
      <trkpt lat="42.75078" lon="1.61086">
        <ele>1904.51</ele>
        <time>2016-12-18T10:36:11Z</time>
      </trkpt>
      <trkpt lat="42.75072" lon="1.61098">
        <ele>1904.99</ele>
        <time>2016-12-18T10:36:21Z</time>
      </trkpt>
      <trkpt lat="42.75067" lon="1.61108">
        <ele>1904.99</ele>
        <time>2016-12-18T10:36:31Z</time>
      </trkpt>
      <trkpt lat="42.75062" lon="1.61119">
        <ele>1905.47</ele>
        <time>2016-12-18T10:36:40Z</time>
      </trkpt>
      <trkpt lat="42.75058" lon="1.61131">
        <ele>1906.43</ele>
        <time>2016-12-18T10:36:49Z</time>
      </trkpt>
      <trkpt lat="42.75054" lon="1.61143">
        <ele>1907.87</ele>
        <time>2016-12-18T10:36:59Z</time>
      </trkpt>
      <trkpt lat="42.75049" lon="1.61154">
        <ele>1908.35</ele>
        <time>2016-12-18T10:37:09Z</time>
      </trkpt>
      <trkpt lat="42.75045" lon="1.61164">
        <ele>1908.35</ele>
        <time>2016-12-18T10:37:27Z</time>
      </trkpt>
      <trkpt lat="42.75039" lon="1.61173">
        <ele>1908.83</ele>
        <time>2016-12-18T10:37:49Z</time>
      </trkpt>
      <trkpt lat="42.75034" lon="1.61184">
        <ele>1909.8</ele>
        <time>2016-12-18T10:37:59Z</time>
      </trkpt>
      <trkpt lat="42.75029" lon="1.61193">
        <ele>1910.28</ele>
        <time>2016-12-18T10:38:13Z</time>
      </trkpt>
      <trkpt lat="42.75024" lon="1.61206">
        <ele>1910.76</ele>
        <time>2016-12-18T10:38:23Z</time>
      </trkpt>
      <trkpt lat="42.75018" lon="1.61215">
        <ele>1910.76</ele>
        <time>2016-12-18T10:38:40Z</time>
      </trkpt>
      <trkpt lat="42.7501" lon="1.6122">
        <ele>1911.24</ele>
        <time>2016-12-18T10:38:51Z</time>
      </trkpt>
      <trkpt lat="42.75004" lon="1.61228">
        <ele>1911.72</ele>
        <time>2016-12-18T10:39:04Z</time>
      </trkpt>
      <trkpt lat="42.74998" lon="1.61239">
        <ele>1911.72</ele>
        <time>2016-12-18T10:39:24Z</time>
      </trkpt>
      <trkpt lat="42.74995" lon="1.61252">
        <ele>1911.72</ele>
        <time>2016-12-18T10:39:35Z</time>
      </trkpt>
      <trkpt lat="42.74992" lon="1.61262">
        <ele>1910.76</ele>
        <time>2016-12-18T10:39:51Z</time>
      </trkpt>
      <trkpt lat="42.74985" lon="1.61272">
        <ele>1910.28</ele>
        <time>2016-12-18T10:40:03Z</time>
      </trkpt>
      <trkpt lat="42.74979" lon="1.61283">
        <ele>1911.24</ele>
        <time>2016-12-18T10:40:13Z</time>
      </trkpt>
      <trkpt lat="42.74973" lon="1.61293">
        <ele>1909.8</ele>
        <time>2016-12-18T10:40:24Z</time>
      </trkpt>
      <trkpt lat="42.74966" lon="1.61303">
        <ele>1910.76</ele>
        <time>2016-12-18T10:40:35Z</time>
      </trkpt>
      <trkpt lat="42.7496" lon="1.61312">
        <ele>1911.24</ele>
        <time>2016-12-18T10:40:46Z</time>
      </trkpt>
      <trkpt lat="42.74953" lon="1.61322">
        <ele>1911.24</ele>
        <time>2016-12-18T10:40:56Z</time>
      </trkpt>
      <trkpt lat="42.74944" lon="1.61328">
        <ele>1912.68</ele>
        <time>2016-12-18T10:41:07Z</time>
      </trkpt>
      <trkpt lat="42.74936" lon="1.61334">
        <ele>1912.2</ele>
        <time>2016-12-18T10:41:19Z</time>
      </trkpt>
      <trkpt lat="42.74929" lon="1.61341">
        <ele>1910.28</ele>
        <time>2016-12-18T10:41:34Z</time>
      </trkpt>
      <trkpt lat="42.74923" lon="1.61329">
        <ele>1910.28</ele>
        <time>2016-12-18T10:42:08Z</time>
      </trkpt>
      <trkpt lat="42.74918" lon="1.61318">
        <ele>1909.8</ele>
        <time>2016-12-18T10:42:32Z</time>
      </trkpt>
      <trkpt lat="42.74909" lon="1.61318">
        <ele>1907.87</ele>
        <time>2016-12-18T10:42:57Z</time>
      </trkpt>
      <trkpt lat="42.74901" lon="1.61311">
        <ele>1904.99</ele>
        <time>2016-12-18T10:43:02Z</time>
      </trkpt>
      <trkpt lat="42.74892" lon="1.61307">
        <ele>1902.11</ele>
        <time>2016-12-18T10:43:07Z</time>
      </trkpt>
      <trkpt lat="42.74882" lon="1.61309">
        <ele>1899.7</ele>
        <time>2016-12-18T10:43:12Z</time>
      </trkpt>
      <trkpt lat="42.74872" lon="1.61309">
        <ele>1896.34</ele>
        <time>2016-12-18T10:43:17Z</time>
      </trkpt>
      <trkpt lat="42.74864" lon="1.61314">
        <ele>1894.9</ele>
        <time>2016-12-18T10:43:22Z</time>
      </trkpt>
      <trkpt lat="42.74854" lon="1.61309">
        <ele>1892.01</ele>
        <time>2016-12-18T10:43:28Z</time>
      </trkpt>
      <trkpt lat="42.74845" lon="1.61311">
        <ele>1890.09</ele>
        <time>2016-12-18T10:43:34Z</time>
      </trkpt>
      <trkpt lat="42.74835" lon="1.61312">
        <ele>1889.13</ele>
        <time>2016-12-18T10:43:40Z</time>
      </trkpt>
      <trkpt lat="42.74825" lon="1.61313">
        <ele>1887.21</ele>
        <time>2016-12-18T10:43:46Z</time>
      </trkpt>
      <trkpt lat="42.74815" lon="1.61316">
        <ele>1884.32</ele>
        <time>2016-12-18T10:43:52Z</time>
      </trkpt>
      <trkpt lat="42.74805" lon="1.61318">
        <ele>1882.88</ele>
        <time>2016-12-18T10:43:58Z</time>
      </trkpt>
      <trkpt lat="42.74796" lon="1.61322">
        <ele>1882.4</ele>
        <time>2016-12-18T10:44:05Z</time>
      </trkpt>
      <trkpt lat="42.74787" lon="1.61325">
        <ele>1881.44</ele>
        <time>2016-12-18T10:44:12Z</time>
      </trkpt>
      <trkpt lat="42.74779" lon="1.61331">
        <ele>1880</ele>
        <time>2016-12-18T10:44:20Z</time>
      </trkpt>
      <trkpt lat="42.7477" lon="1.61338">
        <ele>1879.51</ele>
        <time>2016-12-18T10:44:28Z</time>
      </trkpt>
      <trkpt lat="42.74761" lon="1.61344">
        <ele>1878.07</ele>
        <time>2016-12-18T10:44:35Z</time>
      </trkpt>
      <trkpt lat="42.74752" lon="1.61349">
        <ele>1875.67</ele>
        <time>2016-12-18T10:44:43Z</time>
      </trkpt>
      <trkpt lat="42.74743" lon="1.61353">
        <ele>1873.75</ele>
        <time>2016-12-18T10:44:51Z</time>
      </trkpt>
      <trkpt lat="42.74733" lon="1.61358">
        <ele>1871.82</ele>
        <time>2016-12-18T10:44:59Z</time>
      </trkpt>
      <trkpt lat="42.74723" lon="1.61359">
        <ele>1869.9</ele>
        <time>2016-12-18T10:45:06Z</time>
      </trkpt>
      <trkpt lat="42.74715" lon="1.61366">
        <ele>1866.54</ele>
        <time>2016-12-18T10:45:18Z</time>
      </trkpt>
      <trkpt lat="42.74713" lon="1.61367">
        <ele>1865.09</ele>
        <time>2016-12-18T10:45:52Z</time>
      </trkpt>
      <trkpt lat="42.74722" lon="1.61362">
        <ele>1868.46</ele>
        <time>2016-12-18T10:46:04Z</time>
      </trkpt>
      <trkpt lat="42.74731" lon="1.61359">
        <ele>1869.9</ele>
        <time>2016-12-18T10:46:15Z</time>
      </trkpt>
      <trkpt lat="42.74739" lon="1.61353">
        <ele>1873.27</ele>
        <time>2016-12-18T10:46:25Z</time>
      </trkpt>
      <trkpt lat="42.74742" lon="1.61342">
        <ele>1874.71</ele>
        <time>2016-12-18T10:46:36Z</time>
      </trkpt>
      <trkpt lat="42.74746" lon="1.61333">
        <ele>1876.63</ele>
        <time>2016-12-18T10:46:54Z</time>
      </trkpt>
      <trkpt lat="42.74738" lon="1.61338">
        <ele>1875.19</ele>
        <time>2016-12-18T10:47:08Z</time>
      </trkpt>
      <trkpt lat="42.7474" lon="1.61337">
        <ele>1875.19</ele>
        <time>2016-12-18T10:49:07Z</time>
      </trkpt>
      <trkpt lat="42.74738" lon="1.61338">
        <ele>1873.75</ele>
        <time>2016-12-18T10:49:20Z</time>
      </trkpt>
      <trkpt lat="42.74739" lon="1.61338">
        <ele>1866.54</ele>
        <time>2016-12-18T12:33:00Z</time>
      </trkpt>
      <trkpt lat="42.74663" lon="1.61369">
        <ele>1839.14</ele>
        <time>2016-12-18T12:35:08Z</time>
      </trkpt>
      <trkpt lat="42.7466" lon="1.61382">
        <ele>1839.62</ele>
        <time>2016-12-18T12:35:17Z</time>
      </trkpt>
      <trkpt lat="42.74655" lon="1.61392">
        <ele>1838.66</ele>
        <time>2016-12-18T12:35:27Z</time>
      </trkpt>
      <trkpt lat="42.74646" lon="1.61396">
        <ele>1838.18</ele>
        <time>2016-12-18T12:35:37Z</time>
      </trkpt>
      <trkpt lat="42.74636" lon="1.61397">
        <ele>1836.26</ele>
        <time>2016-12-18T12:35:48Z</time>
      </trkpt>
      <trkpt lat="42.74627" lon="1.61389">
        <ele>1833.85</ele>
        <time>2016-12-18T12:35:58Z</time>
      </trkpt>
      <trkpt lat="42.7462" lon="1.61384">
        <ele>1831.93</ele>
        <time>2016-12-18T12:36:10Z</time>
      </trkpt>
      <trkpt lat="42.74611" lon="1.61378">
        <ele>1830.01</ele>
        <time>2016-12-18T12:36:22Z</time>
      </trkpt>
      <trkpt lat="42.74601" lon="1.61379">
        <ele>1827.12</ele>
        <time>2016-12-18T12:36:32Z</time>
      </trkpt>
      <trkpt lat="42.74592" lon="1.61376">
        <ele>1824.72</ele>
        <time>2016-12-18T12:36:42Z</time>
      </trkpt>
      <trkpt lat="42.74583" lon="1.61372">
        <ele>1822.8</ele>
        <time>2016-12-18T12:36:53Z</time>
      </trkpt>
      <trkpt lat="42.74574" lon="1.6137">
        <ele>1819.43</ele>
        <time>2016-12-18T12:37:05Z</time>
      </trkpt>
      <trkpt lat="42.74565" lon="1.61365">
        <ele>1817.03</ele>
        <time>2016-12-18T12:37:16Z</time>
      </trkpt>
      <trkpt lat="42.74557" lon="1.61361">
        <ele>1814.15</ele>
        <time>2016-12-18T12:37:28Z</time>
      </trkpt>
      <trkpt lat="42.74547" lon="1.61359">
        <ele>1811.26</ele>
        <time>2016-12-18T12:37:41Z</time>
      </trkpt>
      <trkpt lat="42.74538" lon="1.61354">
        <ele>1808.86</ele>
        <time>2016-12-18T12:37:54Z</time>
      </trkpt>
      <trkpt lat="42.74529" lon="1.61352">
        <ele>1805.01</ele>
        <time>2016-12-18T12:38:06Z</time>
      </trkpt>
      <trkpt lat="42.74519" lon="1.61348">
        <ele>1802.61</ele>
        <time>2016-12-18T12:38:18Z</time>
      </trkpt>
      <trkpt lat="42.74511" lon="1.61345">
        <ele>1799.73</ele>
        <time>2016-12-18T12:38:30Z</time>
      </trkpt>
      <trkpt lat="42.74501" lon="1.61342">
        <ele>1796.36</ele>
        <time>2016-12-18T12:38:43Z</time>
      </trkpt>
      <trkpt lat="42.74492" lon="1.61338">
        <ele>1793</ele>
        <time>2016-12-18T12:38:54Z</time>
      </trkpt>
      <trkpt lat="42.74484" lon="1.61332">
        <ele>1789.63</ele>
        <time>2016-12-18T12:39:08Z</time>
      </trkpt>
      <trkpt lat="42.74475" lon="1.61328">
        <ele>1786.27</ele>
        <time>2016-12-18T12:39:20Z</time>
      </trkpt>
      <trkpt lat="42.74468" lon="1.6132">
        <ele>1782.42</ele>
        <time>2016-12-18T12:39:36Z</time>
      </trkpt>
      <trkpt lat="42.7446" lon="1.61311">
        <ele>1778.1</ele>
        <time>2016-12-18T12:39:50Z</time>
      </trkpt>
      <trkpt lat="42.74453" lon="1.61304">
        <ele>1774.25</ele>
        <time>2016-12-18T12:40:03Z</time>
      </trkpt>
      <trkpt lat="42.74445" lon="1.61299">
        <ele>1769.92</ele>
        <time>2016-12-18T12:40:17Z</time>
      </trkpt>
      <trkpt lat="42.74437" lon="1.61292">
        <ele>1765.6</ele>
        <time>2016-12-18T12:40:34Z</time>
      </trkpt>
      <trkpt lat="42.7443" lon="1.61283">
        <ele>1760.79</ele>
        <time>2016-12-18T12:40:49Z</time>
      </trkpt>
      <trkpt lat="42.74422" lon="1.61281">
        <ele>1757.43</ele>
        <time>2016-12-18T12:41:04Z</time>
      </trkpt>
      <trkpt lat="42.74413" lon="1.61276">
        <ele>1753.1</ele>
        <time>2016-12-18T12:41:17Z</time>
      </trkpt>
      <trkpt lat="42.74406" lon="1.61269">
        <ele>1750.22</ele>
        <time>2016-12-18T12:41:33Z</time>
      </trkpt>
      <trkpt lat="42.74399" lon="1.61262">
        <ele>1745.89</ele>
        <time>2016-12-18T12:41:48Z</time>
      </trkpt>
      <trkpt lat="42.74391" lon="1.61257">
        <ele>1741.57</ele>
        <time>2016-12-18T12:42:04Z</time>
      </trkpt>
      <trkpt lat="42.74384" lon="1.61254">
        <ele>1738.2</ele>
        <time>2016-12-18T12:42:20Z</time>
      </trkpt>
      <trkpt lat="42.74375" lon="1.61249">
        <ele>1733.88</ele>
        <time>2016-12-18T12:42:36Z</time>
      </trkpt>
      <trkpt lat="42.7437" lon="1.6124">
        <ele>1730.03</ele>
        <time>2016-12-18T12:42:52Z</time>
      </trkpt>
      <trkpt lat="42.74365" lon="1.61233">
        <ele>1725.7</ele>
        <time>2016-12-18T12:43:07Z</time>
      </trkpt>
      <trkpt lat="42.74361" lon="1.61224">
        <ele>1721.86</ele>
        <time>2016-12-18T12:43:27Z</time>
      </trkpt>
      <trkpt lat="42.74359" lon="1.61212">
        <ele>1717.05</ele>
        <time>2016-12-18T12:43:46Z</time>
      </trkpt>
      <trkpt lat="42.74353" lon="1.61202">
        <ele>1712.73</ele>
        <time>2016-12-18T12:44:03Z</time>
      </trkpt>
      <trkpt lat="42.74351" lon="1.61192">
        <ele>1707.44</ele>
        <time>2016-12-18T12:44:22Z</time>
      </trkpt>
      <trkpt lat="42.74349" lon="1.6118">
        <ele>1702.15</ele>
        <time>2016-12-18T12:44:42Z</time>
      </trkpt>
      <trkpt lat="42.74344" lon="1.6117">
        <ele>1697.83</ele>
        <time>2016-12-18T12:46:12Z</time>
      </trkpt>
      <trkpt lat="42.74343" lon="1.61159">
        <ele>1693.5</ele>
        <time>2016-12-18T12:46:35Z</time>
      </trkpt>
      <trkpt lat="42.7434" lon="1.61147">
        <ele>1688.21</ele>
        <time>2016-12-18T12:46:52Z</time>
      </trkpt>
      <trkpt lat="42.74336" lon="1.61136">
        <ele>1684.37</ele>
        <time>2016-12-18T12:47:17Z</time>
      </trkpt>
      <trkpt lat="42.74332" lon="1.61127">
        <ele>1679.08</ele>
        <time>2016-12-18T12:47:37Z</time>
      </trkpt>
      <trkpt lat="42.74324" lon="1.61125">
        <ele>1675.23</ele>
        <time>2016-12-18T12:47:55Z</time>
      </trkpt>
      <trkpt lat="42.74317" lon="1.61119">
        <ele>1671.39</ele>
        <time>2016-12-18T12:48:11Z</time>
      </trkpt>
      <trkpt lat="42.74313" lon="1.61119">
        <ele>1669.47</ele>
        <time>2016-12-18T12:50:55Z</time>
      </trkpt>
      <trkpt lat="42.74308" lon="1.61119">
        <ele>1666.58</ele>
        <time>2016-12-18T12:51:12Z</time>
      </trkpt>
      <trkpt lat="42.74303" lon="1.61108">
        <ele>1663.22</ele>
        <time>2016-12-18T12:51:37Z</time>
      </trkpt>
      <trkpt lat="42.743" lon="1.61102">
        <ele>1659.37</ele>
        <time>2016-12-18T12:51:53Z</time>
      </trkpt>
      <trkpt lat="42.74298" lon="1.61093">
        <ele>1656.97</ele>
        <time>2016-12-18T12:52:27Z</time>
      </trkpt>
      <trkpt lat="42.74296" lon="1.61082">
        <ele>1650.72</ele>
        <time>2016-12-18T12:52:54Z</time>
      </trkpt>
      <trkpt lat="42.74292" lon="1.61074">
        <ele>1646.88</ele>
        <time>2016-12-18T12:53:15Z</time>
      </trkpt>
      <trkpt lat="42.74294" lon="1.61063">
        <ele>1641.59</ele>
        <time>2016-12-18T12:53:36Z</time>
      </trkpt>
      <trkpt lat="42.74288" lon="1.61055">
        <ele>1637.74</ele>
        <time>2016-12-18T12:54:09Z</time>
      </trkpt>
      <trkpt lat="42.74295" lon="1.61046">
        <ele>1636.78</ele>
        <time>2016-12-18T12:54:25Z</time>
      </trkpt>
      <trkpt lat="42.74297" lon="1.61033">
        <ele>1634.86</ele>
        <time>2016-12-18T12:54:54Z</time>
      </trkpt>
      <trkpt lat="42.74293" lon="1.61024">
        <ele>1629.57</ele>
        <time>2016-12-18T12:55:13Z</time>
      </trkpt>
      <trkpt lat="42.74291" lon="1.61016">
        <ele>1624.28</ele>
        <time>2016-12-18T12:55:45Z</time>
      </trkpt>
      <trkpt lat="42.74289" lon="1.61005">
        <ele>1620.44</ele>
        <time>2016-12-18T12:56:07Z</time>
      </trkpt>
      <trkpt lat="42.74283" lon="1.61003">
        <ele>1615.15</ele>
        <time>2016-12-18T12:56:38Z</time>
      </trkpt>
      <trkpt lat="42.74278" lon="1.60992">
        <ele>1611.31</ele>
        <time>2016-12-18T12:57:02Z</time>
      </trkpt>
      <trkpt lat="42.74273" lon="1.60982">
        <ele>1607.46</ele>
        <time>2016-12-18T12:57:23Z</time>
      </trkpt>
      <trkpt lat="42.74269" lon="1.60969">
        <ele>1600.25</ele>
        <time>2016-12-18T12:58:00Z</time>
      </trkpt>
      <trkpt lat="42.74271" lon="1.60956">
        <ele>1594.48</ele>
        <time>2016-12-18T12:58:34Z</time>
      </trkpt>
      <trkpt lat="42.74271" lon="1.6095">
        <ele>1592.08</ele>
        <time>2016-12-18T12:59:00Z</time>
      </trkpt>
      <trkpt lat="42.74269" lon="1.60938">
        <ele>1587.75</ele>
        <time>2016-12-18T12:59:32Z</time>
      </trkpt>
      <trkpt lat="42.7427" lon="1.60927">
        <ele>1583.43</ele>
        <time>2016-12-18T13:00:00Z</time>
      </trkpt>
      <trkpt lat="42.74269" lon="1.60914">
        <ele>1579.58</ele>
        <time>2016-12-18T13:00:50Z</time>
      </trkpt>
      <trkpt lat="42.74268" lon="1.60903">
        <ele>1575.26</ele>
        <time>2016-12-18T13:01:24Z</time>
      </trkpt>
      <trkpt lat="42.74261" lon="1.60895">
        <ele>1572.85</ele>
        <time>2016-12-18T13:01:56Z</time>
      </trkpt>
      <trkpt lat="42.74263" lon="1.60883">
        <ele>1569.49</ele>
        <time>2016-12-18T13:02:21Z</time>
      </trkpt>
      <trkpt lat="42.74261" lon="1.60869">
        <ele>1563.24</ele>
        <time>2016-12-18T13:02:57Z</time>
      </trkpt>
      <trkpt lat="42.74259" lon="1.60857">
        <ele>1558.92</ele>
        <time>2016-12-18T13:03:27Z</time>
      </trkpt>
      <trkpt lat="42.74259" lon="1.60844">
        <ele>1555.07</ele>
        <time>2016-12-18T13:04:02Z</time>
      </trkpt>
      <trkpt lat="42.74259" lon="1.60832">
        <ele>1550.26</ele>
        <time>2016-12-18T13:04:43Z</time>
      </trkpt>
      <trkpt lat="42.74259" lon="1.60824">
        <ele>1547.86</ele>
        <time>2016-12-18T13:05:35Z</time>
      </trkpt>
      <trkpt lat="42.74258" lon="1.60812">
        <ele>1543.53</ele>
        <time>2016-12-18T13:06:03Z</time>
      </trkpt>
      <trkpt lat="42.74263" lon="1.60801">
        <ele>1542.09</ele>
        <time>2016-12-18T13:06:39Z</time>
      </trkpt>
      <trkpt lat="42.74255" lon="1.60787">
        <ele>1536.32</ele>
        <time>2016-12-18T13:07:10Z</time>
      </trkpt>
      <trkpt lat="42.74266" lon="1.60779">
        <ele>1536.32</ele>
        <time>2016-12-18T13:07:30Z</time>
      </trkpt>
      <trkpt lat="42.7427" lon="1.60768">
        <ele>1535.84</ele>
        <time>2016-12-18T13:10:42Z</time>
      </trkpt>
      <trkpt lat="42.74266" lon="1.60755">
        <ele>1532.96</ele>
        <time>2016-12-18T13:10:57Z</time>
      </trkpt>
      <trkpt lat="42.74265" lon="1.60743">
        <ele>1528.63</ele>
        <time>2016-12-18T13:11:19Z</time>
      </trkpt>
      <trkpt lat="42.74269" lon="1.60732">
        <ele>1524.79</ele>
        <time>2016-12-18T13:11:39Z</time>
      </trkpt>
      <trkpt lat="42.74268" lon="1.60718">
        <ele>1522.39</ele>
        <time>2016-12-18T13:12:03Z</time>
      </trkpt>
      <trkpt lat="42.74261" lon="1.60702">
        <ele>1518.06</ele>
        <time>2016-12-18T13:12:25Z</time>
      </trkpt>
      <trkpt lat="42.74268" lon="1.60692">
        <ele>1517.1</ele>
        <time>2016-12-18T13:12:39Z</time>
      </trkpt>
      <trkpt lat="42.74264" lon="1.60679">
        <ele>1513.73</ele>
        <time>2016-12-18T13:13:04Z</time>
      </trkpt>
      <trkpt lat="42.74272" lon="1.60672">
        <ele>1513.25</ele>
        <time>2016-12-18T13:13:45Z</time>
      </trkpt>
      <trkpt lat="42.74272" lon="1.60658">
        <ele>1510.37</ele>
        <time>2016-12-18T13:14:47Z</time>
      </trkpt>
      <trkpt lat="42.74279" lon="1.60647">
        <ele>1506.52</ele>
        <time>2016-12-18T13:15:15Z</time>
      </trkpt>
      <trkpt lat="42.74279" lon="1.60635">
        <ele>1504.12</ele>
        <time>2016-12-18T13:15:30Z</time>
      </trkpt>
      <trkpt lat="42.74278" lon="1.60624">
        <ele>1501.72</ele>
        <time>2016-12-18T13:16:03Z</time>
      </trkpt>
      <trkpt lat="42.74285" lon="1.60614">
        <ele>1501.24</ele>
        <time>2016-12-18T13:16:22Z</time>
      </trkpt>
      <trkpt lat="42.74286" lon="1.606">
        <ele>1497.87</ele>
        <time>2016-12-18T13:16:41Z</time>
      </trkpt>
      <trkpt lat="42.74293" lon="1.60588">
        <ele>1495.47</ele>
        <time>2016-12-18T13:17:06Z</time>
      </trkpt>
      <trkpt lat="42.74291" lon="1.60577">
        <ele>1490.66</ele>
        <time>2016-12-18T13:17:35Z</time>
      </trkpt>
      <trkpt lat="42.74295" lon="1.60563">
        <ele>1486.82</ele>
        <time>2016-12-18T13:18:13Z</time>
      </trkpt>
      <trkpt lat="42.74284" lon="1.6055">
        <ele>1480.57</ele>
        <time>2016-12-18T13:18:58Z</time>
      </trkpt>
      <trkpt lat="42.74281" lon="1.60538">
        <ele>1476.72</ele>
        <time>2016-12-18T13:19:43Z</time>
      </trkpt>
      <trkpt lat="42.74293" lon="1.6053">
        <ele>1477.2</ele>
        <time>2016-12-18T13:20:30Z</time>
      </trkpt>
      <trkpt lat="42.74309" lon="1.60523">
        <ele>1480.09</ele>
        <time>2016-12-18T13:21:25Z</time>
      </trkpt>
      <trkpt lat="42.74312" lon="1.60504">
        <ele>1475.28</ele>
        <time>2016-12-18T13:23:01Z</time>
      </trkpt>
      <trkpt lat="42.74312" lon="1.60492">
        <ele>1469.99</ele>
        <time>2016-12-18T13:23:28Z</time>
      </trkpt>
      <trkpt lat="42.74305" lon="1.60485">
        <ele>1466.15</ele>
        <time>2016-12-18T13:23:50Z</time>
      </trkpt>
      <trkpt lat="42.74303" lon="1.60474">
        <ele>1463.26</ele>
        <time>2016-12-18T13:24:21Z</time>
      </trkpt>
      <trkpt lat="42.74306" lon="1.60458">
        <ele>1459.9</ele>
        <time>2016-12-18T13:25:06Z</time>
      </trkpt>
      <trkpt lat="42.7431" lon="1.60445">
        <ele>1459.42</ele>
        <time>2016-12-18T13:25:20Z</time>
      </trkpt>
      <trkpt lat="42.74311" lon="1.60428">
        <ele>1457.02</ele>
        <time>2016-12-18T13:25:38Z</time>
      </trkpt>
      <trkpt lat="42.74313" lon="1.60417">
        <ele>1456.05</ele>
        <time>2016-12-18T13:25:55Z</time>
      </trkpt>
      <trkpt lat="42.74317" lon="1.60403">
        <ele>1455.57</ele>
        <time>2016-12-18T13:26:12Z</time>
      </trkpt>
      <trkpt lat="42.74321" lon="1.6039">
        <ele>1453.65</ele>
        <time>2016-12-18T13:26:37Z</time>
      </trkpt>
      <trkpt lat="42.74321" lon="1.6037">
        <ele>1450.29</ele>
        <time>2016-12-18T13:27:13Z</time>
      </trkpt>
      <trkpt lat="42.74333" lon="1.60362">
        <ele>1452.69</ele>
        <time>2016-12-18T13:27:36Z</time>
      </trkpt>
      <trkpt lat="42.74338" lon="1.60347">
        <ele>1454.13</ele>
        <time>2016-12-18T13:27:56Z</time>
      </trkpt>
      <trkpt lat="42.74346" lon="1.60336">
        <ele>1454.61</ele>
        <time>2016-12-18T13:28:42Z</time>
      </trkpt>
      <trkpt lat="42.74357" lon="1.60323">
        <ele>1455.09</ele>
        <time>2016-12-18T13:29:04Z</time>
      </trkpt>
      <trkpt lat="42.74357" lon="1.60307">
        <ele>1453.17</ele>
        <time>2016-12-18T13:29:35Z</time>
      </trkpt>
      <trkpt lat="42.74365" lon="1.60292">
        <ele>1453.17</ele>
        <time>2016-12-18T13:30:42Z</time>
      </trkpt>
      <trkpt lat="42.74363" lon="1.60277">
        <ele>1451.73</ele>
        <time>2016-12-18T13:31:01Z</time>
      </trkpt>
      <trkpt lat="42.74363" lon="1.60261">
        <ele>1448.36</ele>
        <time>2016-12-18T13:31:18Z</time>
      </trkpt>
      <trkpt lat="42.74365" lon="1.60248">
        <ele>1447.88</ele>
        <time>2016-12-18T13:31:34Z</time>
      </trkpt>
      <trkpt lat="42.74364" lon="1.60234">
        <ele>1445.96</ele>
        <time>2016-12-18T13:32:14Z</time>
      </trkpt>
      <trkpt lat="42.74367" lon="1.60224">
        <ele>1444.04</ele>
        <time>2016-12-18T13:32:28Z</time>
      </trkpt>
      <trkpt lat="42.74366" lon="1.60215">
        <ele>1440.19</ele>
        <time>2016-12-18T13:32:56Z</time>
      </trkpt>
      <trkpt lat="42.74365" lon="1.602">
        <ele>1433.94</ele>
        <time>2016-12-18T13:33:24Z</time>
      </trkpt>
      <trkpt lat="42.74369" lon="1.60187">
        <ele>1430.58</ele>
        <time>2016-12-18T13:33:50Z</time>
      </trkpt>
      <trkpt lat="42.74371" lon="1.60178">
        <ele>1425.77</ele>
        <time>2016-12-18T13:34:14Z</time>
      </trkpt>
      <trkpt lat="42.7436" lon="1.60164">
        <ele>1420.97</ele>
        <time>2016-12-18T13:34:42Z</time>
      </trkpt>
      <trkpt lat="42.74349" lon="1.60156">
        <ele>1417.12</ele>
        <time>2016-12-18T13:35:04Z</time>
      </trkpt>
      <trkpt lat="42.74345" lon="1.6015">
        <ele>1412.31</ele>
        <time>2016-12-18T13:35:34Z</time>
      </trkpt>
      <trkpt lat="42.74338" lon="1.60135">
        <ele>1408.47</ele>
        <time>2016-12-18T13:36:00Z</time>
      </trkpt>
      <trkpt lat="42.74332" lon="1.60125">
        <ele>1405.1</ele>
        <time>2016-12-18T13:36:19Z</time>
      </trkpt>
      <trkpt lat="42.7432" lon="1.60118">
        <ele>1402.22</ele>
        <time>2016-12-18T13:36:47Z</time>
      </trkpt>
      <trkpt lat="42.74321" lon="1.60104">
        <ele>1403.18</ele>
        <time>2016-12-18T13:37:10Z</time>
      </trkpt>
      <trkpt lat="42.74324" lon="1.60091">
        <ele>1404.62</ele>
        <time>2016-12-18T13:37:26Z</time>
      </trkpt>
      <trkpt lat="42.74318" lon="1.60078">
        <ele>1405.1</ele>
        <time>2016-12-18T13:37:42Z</time>
      </trkpt>
      <trkpt lat="42.74314" lon="1.60061">
        <ele>1404.62</ele>
        <time>2016-12-18T13:38:13Z</time>
      </trkpt>
      <trkpt lat="42.74313" lon="1.60045">
        <ele>1403.66</ele>
        <time>2016-12-18T13:38:38Z</time>
      </trkpt>
      <trkpt lat="42.74317" lon="1.6002">
        <ele>1403.18</ele>
        <time>2016-12-18T13:39:42Z</time>
      </trkpt>
      <trkpt lat="42.74315" lon="1.6001">
        <ele>1400.78</ele>
        <time>2016-12-18T13:40:00Z</time>
      </trkpt>
      <trkpt lat="42.74318" lon="1.60001">
        <ele>1399.34</ele>
        <time>2016-12-18T13:41:49Z</time>
      </trkpt>
      <trkpt lat="42.74304" lon="1.59991">
        <ele>1395.01</ele>
        <time>2016-12-18T13:42:54Z</time>
      </trkpt>
      <trkpt lat="42.74297" lon="1.59985">
        <ele>1389.72</ele>
        <time>2016-12-18T13:43:19Z</time>
      </trkpt>
      <trkpt lat="42.74301" lon="1.59976">
        <ele>1388.28</ele>
        <time>2016-12-18T13:44:05Z</time>
      </trkpt>
      <trkpt lat="42.74305" lon="1.59965">
        <ele>1388.76</ele>
        <time>2016-12-18T13:44:19Z</time>
      </trkpt>
      <trkpt lat="42.74307" lon="1.5995">
        <ele>1387.8</ele>
        <time>2016-12-18T13:44:48Z</time>
      </trkpt>
      <trkpt lat="42.7431" lon="1.59939">
        <ele>1387.32</ele>
        <time>2016-12-18T13:45:03Z</time>
      </trkpt>
      <trkpt lat="42.74309" lon="1.59926">
        <ele>1385.88</ele>
        <time>2016-12-18T13:45:15Z</time>
      </trkpt>
      <trkpt lat="42.7431" lon="1.59913">
        <ele>1384.44</ele>
        <time>2016-12-18T13:45:29Z</time>
      </trkpt>
      <trkpt lat="42.74313" lon="1.599">
        <ele>1383.47</ele>
        <time>2016-12-18T13:45:43Z</time>
      </trkpt>
      <trkpt lat="42.74316" lon="1.59885">
        <ele>1382.03</ele>
        <time>2016-12-18T13:45:59Z</time>
      </trkpt>
      <trkpt lat="42.7432" lon="1.59872">
        <ele>1379.63</ele>
        <time>2016-12-18T13:46:34Z</time>
      </trkpt>
      <trkpt lat="42.74325" lon="1.5986">
        <ele>1377.23</ele>
        <time>2016-12-18T13:47:00Z</time>
      </trkpt>
      <trkpt lat="42.74336" lon="1.59854">
        <ele>1379.15</ele>
        <time>2016-12-18T13:48:22Z</time>
      </trkpt>
      <trkpt lat="42.74348" lon="1.59837">
        <ele>1375.78</ele>
        <time>2016-12-18T13:49:10Z</time>
      </trkpt>
      <trkpt lat="42.74365" lon="1.5982">
        <ele>1371.94</ele>
        <time>2016-12-18T13:50:31Z</time>
      </trkpt>
      <trkpt lat="42.74374" lon="1.59808">
        <ele>1368.57</ele>
        <time>2016-12-18T13:53:43Z</time>
      </trkpt>
      <trkpt lat="42.74381" lon="1.59798">
        <ele>1364.25</ele>
        <time>2016-12-18T13:54:47Z</time>
      </trkpt>
      <trkpt lat="42.74394" lon="1.59789">
        <ele>1364.73</ele>
        <time>2016-12-18T13:56:13Z</time>
      </trkpt>
      <trkpt lat="42.74406" lon="1.59779">
        <ele>1361.36</ele>
        <time>2016-12-18T13:56:40Z</time>
      </trkpt>
      <trkpt lat="42.74414" lon="1.59763">
        <ele>1355.12</ele>
        <time>2016-12-18T13:57:15Z</time>
      </trkpt>
      <trkpt lat="42.74422" lon="1.59745">
        <ele>1348.87</ele>
        <time>2016-12-18T13:57:47Z</time>
      </trkpt>
      <trkpt lat="42.74428" lon="1.59729">
        <ele>1344.54</ele>
        <time>2016-12-18T13:58:16Z</time>
      </trkpt>
      <trkpt lat="42.74432" lon="1.59711">
        <ele>1337.81</ele>
        <time>2016-12-18T13:58:47Z</time>
      </trkpt>
      <trkpt lat="42.74441" lon="1.5969">
        <ele>1329.64</ele>
        <time>2016-12-18T13:59:28Z</time>
      </trkpt>
      <trkpt lat="42.74447" lon="1.59673">
        <ele>1319.55</ele>
        <time>2016-12-18T14:01:03Z</time>
      </trkpt>
      <trkpt lat="42.74453" lon="1.59644">
        <ele>1306.09</ele>
        <time>2016-12-18T14:01:54Z</time>
      </trkpt>
      <trkpt lat="42.74462" lon="1.59617">
        <ele>1296.48</ele>
        <time>2016-12-18T14:02:34Z</time>
      </trkpt>
      <trkpt lat="42.74457" lon="1.59597">
        <ele>1290.23</ele>
        <time>2016-12-18T14:03:44Z</time>
      </trkpt>
      <trkpt lat="42.74454" lon="1.59568">
        <ele>1280.13</ele>
        <time>2016-12-18T14:04:32Z</time>
      </trkpt>
      <trkpt lat="42.74457" lon="1.59551">
        <ele>1273.88</ele>
        <time>2016-12-18T14:05:02Z</time>
      </trkpt>
      <trkpt lat="42.74456" lon="1.5954">
        <ele>1268.12</ele>
        <time>2016-12-18T14:05:27Z</time>
      </trkpt>
      <trkpt lat="42.74462" lon="1.59525">
        <ele>1262.83</ele>
        <time>2016-12-18T14:05:52Z</time>
      </trkpt>
      <trkpt lat="42.74454" lon="1.59506">
        <ele>1256.1</ele>
        <time>2016-12-18T14:06:18Z</time>
      </trkpt>
      <trkpt lat="42.74444" lon="1.59498">
        <ele>1252.74</ele>
        <time>2016-12-18T14:06:37Z</time>
      </trkpt>
      <trkpt lat="42.74438" lon="1.59491">
        <ele>1251.29</ele>
        <time>2016-12-18T14:07:14Z</time>
      </trkpt>
      <trkpt lat="42.74447" lon="1.59477">
        <ele>1250.33</ele>
        <time>2016-12-18T14:07:28Z</time>
      </trkpt>
      <trkpt lat="42.74452" lon="1.5946">
        <ele>1249.37</ele>
        <time>2016-12-18T14:07:40Z</time>
      </trkpt>
      <trkpt lat="42.74454" lon="1.59446">
        <ele>1248.41</ele>
        <time>2016-12-18T14:07:50Z</time>
      </trkpt>
      <trkpt lat="42.74447" lon="1.5943">
        <ele>1247.45</ele>
        <time>2016-12-18T14:08:00Z</time>
      </trkpt>
      <trkpt lat="42.74437" lon="1.59423">
        <ele>1246.01</ele>
        <time>2016-12-18T14:08:08Z</time>
      </trkpt>
      <trkpt lat="42.74428" lon="1.59419">
        <ele>1245.04</ele>
        <time>2016-12-18T14:08:17Z</time>
      </trkpt>
      <trkpt lat="42.74418" lon="1.59417">
        <ele>1244.08</ele>
        <time>2016-12-18T14:08:27Z</time>
      </trkpt>
      <trkpt lat="42.74408" lon="1.59419">
        <ele>1243.6</ele>
        <time>2016-12-18T14:08:36Z</time>
      </trkpt>
      <trkpt lat="42.74398" lon="1.59429">
        <ele>1238.8</ele>
        <time>2016-12-18T14:08:47Z</time>
      </trkpt>
      <trkpt lat="42.74388" lon="1.59439">
        <ele>1241.68</ele>
        <time>2016-12-18T14:08:57Z</time>
      </trkpt>
      <trkpt lat="42.74379" lon="1.59427">
        <ele>1240.24</ele>
        <time>2016-12-18T14:09:09Z</time>
      </trkpt>
      <trkpt lat="42.74384" lon="1.59417">
        <ele>1239.76</ele>
        <time>2016-12-18T14:11:35Z</time>
      </trkpt>
      <trkpt lat="42.74389" lon="1.59403">
        <ele>1237.83</ele>
        <time>2016-12-18T14:11:48Z</time>
      </trkpt>
      <trkpt lat="42.74388" lon="1.59388">
        <ele>1236.87</ele>
        <time>2016-12-18T14:12:01Z</time>
      </trkpt>
      <trkpt lat="42.74385" lon="1.59374">
        <ele>1235.91</ele>
        <time>2016-12-18T14:12:12Z</time>
      </trkpt>
      <trkpt lat="42.74381" lon="1.5936">
        <ele>1235.43</ele>
        <time>2016-12-18T14:12:21Z</time>
      </trkpt>
      <trkpt lat="42.74382" lon="1.59343">
        <ele>1234.47</ele>
        <time>2016-12-18T14:12:32Z</time>
      </trkpt>
      <trkpt lat="42.74387" lon="1.59328">
        <ele>1233.51</ele>
        <time>2016-12-18T14:12:44Z</time>
      </trkpt>
      <trkpt lat="42.74395" lon="1.59315">
        <ele>1232.07</ele>
        <time>2016-12-18T14:12:55Z</time>
      </trkpt>
      <trkpt lat="42.74404" lon="1.59308">
        <ele>1230.62</ele>
        <time>2016-12-18T14:13:06Z</time>
      </trkpt>
      <trkpt lat="42.74411" lon="1.59295">
        <ele>1228.7</ele>
        <time>2016-12-18T14:13:17Z</time>
      </trkpt>
      <trkpt lat="42.74417" lon="1.59278">
        <ele>1226.78</ele>
        <time>2016-12-18T14:13:30Z</time>
      </trkpt>
      <trkpt lat="42.74423" lon="1.59265">
        <ele>1225.82</ele>
        <time>2016-12-18T14:13:41Z</time>
      </trkpt>
      <trkpt lat="42.74432" lon="1.59255">
        <ele>1224.86</ele>
        <time>2016-12-18T14:13:51Z</time>
      </trkpt>
      <trkpt lat="42.7444" lon="1.59244">
        <ele>1223.9</ele>
        <time>2016-12-18T14:14:01Z</time>
      </trkpt>
      <trkpt lat="42.74445" lon="1.59235">
        <ele>1224.38</ele>
        <time>2016-12-18T14:14:25Z</time>
      </trkpt>
      <trkpt lat="42.74451" lon="1.5922">
        <ele>1222.93</ele>
        <time>2016-12-18T14:14:37Z</time>
      </trkpt>
      <trkpt lat="42.74454" lon="1.59205">
        <ele>1221.49</ele>
        <time>2016-12-18T14:14:48Z</time>
      </trkpt>
      <trkpt lat="42.74456" lon="1.59187">
        <ele>1220.53</ele>
        <time>2016-12-18T14:15:01Z</time>
      </trkpt>
      <trkpt lat="42.74459" lon="1.59168">
        <ele>1219.57</ele>
        <time>2016-12-18T14:15:14Z</time>
      </trkpt>
      <trkpt lat="42.74463" lon="1.59152">
        <ele>1218.13</ele>
        <time>2016-12-18T14:15:26Z</time>
      </trkpt>
      <trkpt lat="42.74468" lon="1.59137">
        <ele>1216.21</ele>
        <time>2016-12-18T14:15:37Z</time>
      </trkpt>
      <trkpt lat="42.74474" lon="1.59123">
        <ele>1214.76</ele>
        <time>2016-12-18T14:15:47Z</time>
      </trkpt>
      <trkpt lat="42.7448" lon="1.59109">
        <ele>1213.32</ele>
        <time>2016-12-18T14:15:58Z</time>
      </trkpt>
      <trkpt lat="42.74485" lon="1.59094">
        <ele>1211.88</ele>
        <time>2016-12-18T14:16:10Z</time>
      </trkpt>
      <trkpt lat="42.74491" lon="1.59077">
        <ele>1210.92</ele>
        <time>2016-12-18T14:16:22Z</time>
      </trkpt>
      <trkpt lat="42.74495" lon="1.59061">
        <ele>1209</ele>
        <time>2016-12-18T14:16:33Z</time>
      </trkpt>
      <trkpt lat="42.74502" lon="1.59046">
        <ele>1208.03</ele>
        <time>2016-12-18T14:16:44Z</time>
      </trkpt>
      <trkpt lat="42.74508" lon="1.5903">
        <ele>1207.07</ele>
        <time>2016-12-18T14:16:56Z</time>
      </trkpt>
      <trkpt lat="42.74512" lon="1.59015">
        <ele>1205.63</ele>
        <time>2016-12-18T14:17:07Z</time>
      </trkpt>
      <trkpt lat="42.74518" lon="1.59002">
        <ele>1204.67</ele>
        <time>2016-12-18T14:17:17Z</time>
      </trkpt>
      <trkpt lat="42.74522" lon="1.58985">
        <ele>1203.71</ele>
        <time>2016-12-18T14:17:28Z</time>
      </trkpt>
      <trkpt lat="42.74528" lon="1.58971">
        <ele>1203.23</ele>
        <time>2016-12-18T14:17:38Z</time>
      </trkpt>
      <trkpt lat="42.74531" lon="1.58957">
        <ele>1202.75</ele>
        <time>2016-12-18T14:17:48Z</time>
      </trkpt>
      <trkpt lat="42.74537" lon="1.58942">
        <ele>1201.3</ele>
        <time>2016-12-18T14:17:59Z</time>
      </trkpt>
      <trkpt lat="42.74544" lon="1.58925">
        <ele>1200.34</ele>
        <time>2016-12-18T14:18:12Z</time>
      </trkpt>
      <trkpt lat="42.74549" lon="1.58908">
        <ele>1199.38</ele>
        <time>2016-12-18T14:18:23Z</time>
      </trkpt>
      <trkpt lat="42.74553" lon="1.58893">
        <ele>1198.9</ele>
        <time>2016-12-18T14:18:33Z</time>
      </trkpt>
      <trkpt lat="42.74558" lon="1.58876">
        <ele>1197.94</ele>
        <time>2016-12-18T14:18:44Z</time>
      </trkpt>
      <trkpt lat="42.74561" lon="1.58859">
        <ele>1196.98</ele>
        <time>2016-12-18T14:18:55Z</time>
      </trkpt>
      <trkpt lat="42.74564" lon="1.58842">
        <ele>1196.5</ele>
        <time>2016-12-18T14:19:06Z</time>
      </trkpt>
      <trkpt lat="42.74566" lon="1.58824">
        <ele>1194.58</ele>
        <time>2016-12-18T14:19:17Z</time>
      </trkpt>
      <trkpt lat="42.74567" lon="1.58809">
        <ele>1193.61</ele>
        <time>2016-12-18T14:19:27Z</time>
      </trkpt>
      <trkpt lat="42.74568" lon="1.58794">
        <ele>1193.13</ele>
        <time>2016-12-18T14:19:36Z</time>
      </trkpt>
      <trkpt lat="42.74571" lon="1.58778">
        <ele>1191.69</ele>
        <time>2016-12-18T14:19:46Z</time>
      </trkpt>
      <trkpt lat="42.74575" lon="1.58762">
        <ele>1189.77</ele>
        <time>2016-12-18T14:19:57Z</time>
      </trkpt>
      <trkpt lat="42.7458" lon="1.58747">
        <ele>1189.29</ele>
        <time>2016-12-18T14:20:08Z</time>
      </trkpt>
      <trkpt lat="42.74587" lon="1.58734">
        <ele>1187.85</ele>
        <time>2016-12-18T14:20:18Z</time>
      </trkpt>
      <trkpt lat="42.74598" lon="1.58723">
        <ele>1186.4</ele>
        <time>2016-12-18T14:20:29Z</time>
      </trkpt>
      <trkpt lat="42.74608" lon="1.58713">
        <ele>1185.92</ele>
        <time>2016-12-18T14:20:41Z</time>
      </trkpt>
      <trkpt lat="42.74617" lon="1.58704">
        <ele>1184.48</ele>
        <time>2016-12-18T14:20:51Z</time>
      </trkpt>
      <trkpt lat="42.74631" lon="1.58697">
        <ele>1183.04</ele>
        <time>2016-12-18T14:21:03Z</time>
      </trkpt>
      <trkpt lat="42.7464" lon="1.58685">
        <ele>1181.6</ele>
        <time>2016-12-18T14:21:15Z</time>
      </trkpt>
      <trkpt lat="42.74647" lon="1.5867">
        <ele>1180.16</ele>
        <time>2016-12-18T14:21:26Z</time>
      </trkpt>
      <trkpt lat="42.74655" lon="1.58659">
        <ele>1178.71</ele>
        <time>2016-12-18T14:21:37Z</time>
      </trkpt>
      <trkpt lat="42.74664" lon="1.5865">
        <ele>1177.75</ele>
        <time>2016-12-18T14:21:48Z</time>
      </trkpt>
      <trkpt lat="42.74674" lon="1.58641">
        <ele>1176.31</ele>
        <time>2016-12-18T14:21:59Z</time>
      </trkpt>
      <trkpt lat="42.74686" lon="1.58634">
        <ele>1174.87</ele>
        <time>2016-12-18T14:22:10Z</time>
      </trkpt>
      <trkpt lat="42.74698" lon="1.58626">
        <ele>1173.43</ele>
        <time>2016-12-18T14:22:21Z</time>
      </trkpt>
      <trkpt lat="42.74708" lon="1.5862">
        <ele>1172.47</ele>
        <time>2016-12-18T14:22:32Z</time>
      </trkpt>
      <trkpt lat="42.74726" lon="1.58617">
        <ele>1170.54</ele>
        <time>2016-12-18T14:22:47Z</time>
      </trkpt>
      <trkpt lat="42.74742" lon="1.58616">
        <ele>1170.06</ele>
        <time>2016-12-18T14:22:58Z</time>
      </trkpt>
      <trkpt lat="42.74754" lon="1.58616">
        <ele>1169.58</ele>
        <time>2016-12-18T14:23:10Z</time>
      </trkpt>
      <trkpt lat="42.74766" lon="1.5861">
        <ele>1168.62</ele>
        <time>2016-12-18T14:23:22Z</time>
      </trkpt>
      <trkpt lat="42.74765" lon="1.5859">
        <ele>1168.62</ele>
        <time>2016-12-18T14:23:35Z</time>
      </trkpt>
      <trkpt lat="42.74763" lon="1.58575">
        <ele>1169.1</ele>
        <time>2016-12-18T14:23:46Z</time>
      </trkpt>
      <trkpt lat="42.7476" lon="1.58562">
        <ele>1169.58</ele>
        <time>2016-12-18T14:23:56Z</time>
      </trkpt>
      <trkpt lat="42.74757" lon="1.58547">
        <ele>1169.58</ele>
        <time>2016-12-18T14:24:06Z</time>
      </trkpt>
      <trkpt lat="42.7476" lon="1.58533">
        <ele>1169.58</ele>
        <time>2016-12-18T14:24:17Z</time>
      </trkpt>
      <trkpt lat="42.74766" lon="1.5852">
        <ele>1169.58</ele>
        <time>2016-12-18T14:24:28Z</time>
      </trkpt>
      <trkpt lat="42.74773" lon="1.58504">
        <ele>1168.62</ele>
        <time>2016-12-18T14:24:41Z</time>
      </trkpt>
      <trkpt lat="42.7478" lon="1.58492">
        <ele>1168.14</ele>
        <time>2016-12-18T14:24:56Z</time>
      </trkpt>
      <trkpt lat="42.74785" lon="1.58471">
        <ele>1166.7</ele>
        <time>2016-12-18T14:25:10Z</time>
      </trkpt>
      <trkpt lat="42.74789" lon="1.58454">
        <ele>1165.26</ele>
        <time>2016-12-18T14:25:28Z</time>
      </trkpt>
      <trkpt lat="42.74794" lon="1.58435">
        <ele>1163.81</ele>
        <time>2016-12-18T14:25:42Z</time>
      </trkpt>
      <trkpt lat="42.74798" lon="1.58415">
        <ele>1162.85</ele>
        <time>2016-12-18T14:25:56Z</time>
      </trkpt>
      <trkpt lat="42.74804" lon="1.58396">
        <ele>1161.41</ele>
        <time>2016-12-18T14:26:10Z</time>
      </trkpt>
      <trkpt lat="42.74806" lon="1.58376">
        <ele>1159.49</ele>
        <time>2016-12-18T14:26:25Z</time>
      </trkpt>
      <trkpt lat="42.74807" lon="1.58358">
        <ele>1158.05</ele>
        <time>2016-12-18T14:26:37Z</time>
      </trkpt>
      <trkpt lat="42.74808" lon="1.58338">
        <ele>1156.12</ele>
        <time>2016-12-18T14:26:52Z</time>
      </trkpt>
      <trkpt lat="42.74808" lon="1.58319">
        <ele>1154.68</ele>
        <time>2016-12-18T14:27:06Z</time>
      </trkpt>
      <trkpt lat="42.7481" lon="1.58302">
        <ele>1153.24</ele>
        <time>2016-12-18T14:27:18Z</time>
      </trkpt>
      <trkpt lat="42.74811" lon="1.58283">
        <ele>1151.8</ele>
        <time>2016-12-18T14:27:31Z</time>
      </trkpt>
      <trkpt lat="42.74812" lon="1.58267">
        <ele>1150.35</ele>
        <time>2016-12-18T14:27:43Z</time>
      </trkpt>
      <trkpt lat="42.74816" lon="1.58252">
        <ele>1149.87</ele>
        <time>2016-12-18T14:27:53Z</time>
      </trkpt>
      <trkpt lat="42.74824" lon="1.58239">
        <ele>1148.43</ele>
        <time>2016-12-18T14:28:11Z</time>
      </trkpt>
      <trkpt lat="42.74829" lon="1.58245">
        <ele>1153.24</ele>
        <time>2016-12-18T14:28:32Z</time>
      </trkpt>
      <trkpt lat="42.7484" lon="1.58235">
        <ele>1156.12</ele>
        <time>2016-12-18T14:28:51Z</time>
      </trkpt>
      <trkpt lat="42.74856" lon="1.58239">
        <ele>1160.45</ele>
        <time>2016-12-18T14:29:21Z</time>
      </trkpt>
      <trkpt lat="42.74871" lon="1.58243">
        <ele>1163.33</ele>
        <time>2016-12-18T14:29:46Z</time>
      </trkpt>
      <trkpt lat="42.74876" lon="1.58234">
        <ele>1165.74</ele>
        <time>2016-12-18T14:30:10Z</time>
      </trkpt>
      <trkpt lat="42.74901" lon="1.58247">
        <ele>1165.26</ele>
        <time>2016-12-18T14:30:45Z</time>
      </trkpt>
      <trkpt lat="42.74913" lon="1.58254">
        <ele>1168.62</ele>
        <time>2016-12-18T14:31:35Z</time>
      </trkpt>
      <trkpt lat="42.74928" lon="1.58245">
        <ele>1167.66</ele>
        <time>2016-12-18T14:31:53Z</time>
      </trkpt>
      <trkpt lat="42.74946" lon="1.58231">
        <ele>1165.74</ele>
        <time>2016-12-18T14:32:13Z</time>
      </trkpt>
      <trkpt lat="42.74961" lon="1.5822">
        <ele>1164.77</ele>
        <time>2016-12-18T14:32:30Z</time>
      </trkpt>
      <trkpt lat="42.74978" lon="1.58211">
        <ele>1164.29</ele>
        <time>2016-12-18T14:32:48Z</time>
      </trkpt>
      <trkpt lat="42.7499" lon="1.58209">
        <ele>1162.85</ele>
        <time>2016-12-18T14:33:05Z</time>
      </trkpt>
      <trkpt lat="42.75015" lon="1.58198">
        <ele>1160.45</ele>
        <time>2016-12-18T14:33:35Z</time>
      </trkpt>
      <trkpt lat="42.75025" lon="1.58177">
        <ele>1159.97</ele>
        <time>2016-12-18T14:34:11Z</time>
      </trkpt>
      <trkpt lat="42.75036" lon="1.58155">
        <ele>1159.01</ele>
        <time>2016-12-18T14:34:31Z</time>
      </trkpt>
      <trkpt lat="42.75037" lon="1.58132">
        <ele>1158.05</ele>
        <time>2016-12-18T14:34:54Z</time>
      </trkpt>
      <trkpt lat="42.75044" lon="1.58118">
        <ele>1158.05</ele>
        <time>2016-12-18T14:35:08Z</time>
      </trkpt>
      <trkpt lat="42.75055" lon="1.58106">
        <ele>1159.01</ele>
        <time>2016-12-18T14:35:23Z</time>
      </trkpt>
      <trkpt lat="42.75065" lon="1.58087">
        <ele>1158.53</ele>
        <time>2016-12-18T14:36:09Z</time>
      </trkpt>
      <trkpt lat="42.75072" lon="1.58068">
        <ele>1157.56</ele>
        <time>2016-12-18T14:36:29Z</time>
      </trkpt>
      <trkpt lat="42.75078" lon="1.58047">
        <ele>1157.56</ele>
        <time>2016-12-18T14:36:53Z</time>
      </trkpt>
      <trkpt lat="42.75085" lon="1.58032">
        <ele>1157.08</ele>
        <time>2016-12-18T14:37:08Z</time>
      </trkpt>
      <trkpt lat="42.75088" lon="1.58018">
        <ele>1155.64</ele>
        <time>2016-12-18T14:37:20Z</time>
      </trkpt>
      <trkpt lat="42.7509" lon="1.58004">
        <ele>1155.16</ele>
        <time>2016-12-18T14:37:30Z</time>
      </trkpt>
      <trkpt lat="42.75093" lon="1.57992">
        <ele>1155.64</ele>
        <time>2016-12-18T14:37:42Z</time>
      </trkpt>
      <trkpt lat="42.75096" lon="1.57979">
        <ele>1155.64</ele>
        <time>2016-12-18T14:37:56Z</time>
      </trkpt>
      <trkpt lat="42.75098" lon="1.57966">
        <ele>1155.16</ele>
        <time>2016-12-18T14:38:08Z</time>
      </trkpt>
      <trkpt lat="42.75101" lon="1.57952">
        <ele>1154.68</ele>
        <time>2016-12-18T14:38:20Z</time>
      </trkpt>
      <trkpt lat="42.75103" lon="1.57938">
        <ele>1153.72</ele>
        <time>2016-12-18T14:38:33Z</time>
      </trkpt>
      <trkpt lat="42.75104" lon="1.57924">
        <ele>1154.68</ele>
        <time>2016-12-18T14:38:47Z</time>
      </trkpt>
      <trkpt lat="42.75102" lon="1.5791">
        <ele>1154.2</ele>
        <time>2016-12-18T14:39:03Z</time>
      </trkpt>
      <trkpt lat="42.75099" lon="1.57897">
        <ele>1152.76</ele>
        <time>2016-12-18T14:39:14Z</time>
      </trkpt>
      <trkpt lat="42.75098" lon="1.57884">
        <ele>1152.28</ele>
        <time>2016-12-18T14:39:28Z</time>
      </trkpt>
      <trkpt lat="42.751" lon="1.57868">
        <ele>1150.35</ele>
        <time>2016-12-18T14:39:44Z</time>
      </trkpt>
      <trkpt lat="42.75102" lon="1.57853">
        <ele>1149.39</ele>
        <time>2016-12-18T14:39:59Z</time>
      </trkpt>
      <trkpt lat="42.75104" lon="1.57837">
        <ele>1147.95</ele>
        <time>2016-12-18T14:40:15Z</time>
      </trkpt>
      <trkpt lat="42.75102" lon="1.5782">
        <ele>1146.03</ele>
        <time>2016-12-18T14:40:30Z</time>
      </trkpt>
      <trkpt lat="42.75108" lon="1.57808">
        <ele>1145.55</ele>
        <time>2016-12-18T14:40:46Z</time>
      </trkpt>
      <trkpt lat="42.75138" lon="1.57811">
        <ele>1138.82</ele>
        <time>2016-12-18T14:41:26Z</time>
      </trkpt>
      <trkpt lat="42.75148" lon="1.57792">
        <ele>1135.45</ele>
        <time>2016-12-18T14:41:46Z</time>
      </trkpt>
      <trkpt lat="42.75155" lon="1.57769">
        <ele>1132.57</ele>
        <time>2016-12-18T14:42:10Z</time>
      </trkpt>
      <trkpt lat="42.75166" lon="1.57741">
        <ele>1126.8</ele>
        <time>2016-12-18T14:42:46Z</time>
      </trkpt>
      <trkpt lat="42.7518" lon="1.57729">
        <ele>1123.92</ele>
        <time>2016-12-18T14:43:09Z</time>
      </trkpt>
      <trkpt lat="42.75205" lon="1.57728">
        <ele>1121.52</ele>
        <time>2016-12-18T14:44:44Z</time>
      </trkpt>
      <trkpt lat="42.75224" lon="1.57719">
        <ele>1120.55</ele>
        <time>2016-12-18T14:45:09Z</time>
      </trkpt>
      <trkpt lat="42.7524" lon="1.57706">
        <ele>1118.63</ele>
        <time>2016-12-18T14:45:29Z</time>
      </trkpt>
      <trkpt lat="42.75261" lon="1.57694">
        <ele>1113.82</ele>
        <time>2016-12-18T14:45:54Z</time>
      </trkpt>
      <trkpt lat="42.75305" lon="1.57695">
        <ele>1102.77</ele>
        <time>2016-12-18T14:46:50Z</time>
      </trkpt>
      <trkpt lat="42.75319" lon="1.57684">
        <ele>1098.44</ele>
        <time>2016-12-18T14:47:13Z</time>
      </trkpt>
      <trkpt lat="42.75336" lon="1.5767">
        <ele>1092.68</ele>
        <time>2016-12-18T14:47:43Z</time>
      </trkpt>
      <trkpt lat="42.75329" lon="1.57655">
        <ele>1087.87</ele>
        <time>2016-12-18T14:48:05Z</time>
      </trkpt>
      <trkpt lat="42.75352" lon="1.57645">
        <ele>1081.14</ele>
        <time>2016-12-18T14:48:41Z</time>
      </trkpt>
      <trkpt lat="42.75365" lon="1.57632">
        <ele>1075.85</ele>
        <time>2016-12-18T14:49:09Z</time>
      </trkpt>
      <trkpt lat="42.7539" lon="1.5762">
        <ele>1069.6</ele>
        <time>2016-12-18T14:49:49Z</time>
      </trkpt>
      <trkpt lat="42.75414" lon="1.57612">
        <ele>1064.32</ele>
        <time>2016-12-18T14:50:31Z</time>
      </trkpt>
      <trkpt lat="42.7543" lon="1.57599">
        <ele>1057.11</ele>
        <time>2016-12-18T14:51:34Z</time>
      </trkpt>
      <trkpt lat="42.7544" lon="1.57593">
        <ele>1056.15</ele>
        <time>2016-12-18T14:52:16Z</time>
      </trkpt>
      <trkpt lat="42.75456" lon="1.57592">
        <ele>1054.22</ele>
        <time>2016-12-18T14:52:31Z</time>
      </trkpt>
      <trkpt lat="42.75469" lon="1.57591">
        <ele>1052.78</ele>
        <time>2016-12-18T14:52:45Z</time>
      </trkpt>
      <trkpt lat="42.75478" lon="1.57589">
        <ele>1051.82</ele>
        <time>2016-12-18T14:52:54Z</time>
      </trkpt>
      <trkpt lat="42.75488" lon="1.57585">
        <ele>1051.34</ele>
        <time>2016-12-18T14:53:03Z</time>
      </trkpt>
      <trkpt lat="42.75499" lon="1.57582">
        <ele>1050.86</ele>
        <time>2016-12-18T14:53:13Z</time>
      </trkpt>
      <trkpt lat="42.75508" lon="1.57581">
        <ele>1049.42</ele>
        <time>2016-12-18T14:53:22Z</time>
      </trkpt>
      <trkpt lat="42.75521" lon="1.57579">
        <ele>1048.45</ele>
        <time>2016-12-18T14:53:33Z</time>
      </trkpt>
      <trkpt lat="42.75534" lon="1.57577">
        <ele>1047.01</ele>
        <time>2016-12-18T14:53:44Z</time>
      </trkpt>
      <trkpt lat="42.75545" lon="1.57574">
        <ele>1046.53</ele>
        <time>2016-12-18T14:53:54Z</time>
      </trkpt>
      <trkpt lat="42.75557" lon="1.57572">
        <ele>1045.57</ele>
        <time>2016-12-18T14:54:05Z</time>
      </trkpt>
      <trkpt lat="42.75567" lon="1.57573">
        <ele>1044.13</ele>
        <time>2016-12-18T14:54:16Z</time>
      </trkpt>
      <trkpt lat="42.7558" lon="1.57574">
        <ele>1043.17</ele>
        <time>2016-12-18T14:54:28Z</time>
      </trkpt>
      <trkpt lat="42.75594" lon="1.57572">
        <ele>1041.73</ele>
        <time>2016-12-18T14:54:41Z</time>
      </trkpt>
      <trkpt lat="42.75609" lon="1.57573">
        <ele>1040.28</ele>
        <time>2016-12-18T14:54:54Z</time>
      </trkpt>
      <trkpt lat="42.7562" lon="1.57571">
        <ele>1039.32</ele>
        <time>2016-12-18T14:55:04Z</time>
      </trkpt>
      <trkpt lat="42.75632" lon="1.57569">
        <ele>1038.36</ele>
        <time>2016-12-18T14:55:13Z</time>
      </trkpt>
      <trkpt lat="42.75642" lon="1.57564">
        <ele>1036.44</ele>
        <time>2016-12-18T14:55:24Z</time>
      </trkpt>
      <trkpt lat="42.75653" lon="1.57563">
        <ele>1035.48</ele>
        <time>2016-12-18T14:55:33Z</time>
      </trkpt>
      <trkpt lat="42.75665" lon="1.57567">
        <ele>1034.04</ele>
        <time>2016-12-18T14:55:44Z</time>
      </trkpt>
      <trkpt lat="42.75675" lon="1.57576">
        <ele>1033.07</ele>
        <time>2016-12-18T14:55:53Z</time>
      </trkpt>
      <trkpt lat="42.75684" lon="1.57582">
        <ele>1031.63</ele>
        <time>2016-12-18T14:56:01Z</time>
      </trkpt>
      <trkpt lat="42.75694" lon="1.57588">
        <ele>1030.67</ele>
        <time>2016-12-18T14:56:10Z</time>
      </trkpt>
      <trkpt lat="42.75704" lon="1.57596">
        <ele>1029.23</ele>
        <time>2016-12-18T14:56:20Z</time>
      </trkpt>
      <trkpt lat="42.75714" lon="1.57604">
        <ele>1028.27</ele>
        <time>2016-12-18T14:56:30Z</time>
      </trkpt>
      <trkpt lat="42.7572" lon="1.57615">
        <ele>1027.31</ele>
        <time>2016-12-18T14:56:37Z</time>
      </trkpt>
      <trkpt lat="42.75725" lon="1.57627">
        <ele>1026.83</ele>
        <time>2016-12-18T14:56:46Z</time>
      </trkpt>
      <trkpt lat="42.75734" lon="1.57637">
        <ele>1026.34</ele>
        <time>2016-12-18T14:56:56Z</time>
      </trkpt>
      <trkpt lat="42.75745" lon="1.57638">
        <ele>1024.42</ele>
        <time>2016-12-18T14:57:09Z</time>
      </trkpt>
      <trkpt lat="42.75759" lon="1.57637">
        <ele>1023.46</ele>
        <time>2016-12-18T14:57:22Z</time>
      </trkpt>
      <trkpt lat="42.75771" lon="1.57646">
        <ele>1022.02</ele>
        <time>2016-12-18T14:57:33Z</time>
      </trkpt>
      <trkpt lat="42.75786" lon="1.57649">
        <ele>1020.58</ele>
        <time>2016-12-18T14:57:46Z</time>
      </trkpt>
      <trkpt lat="42.75794" lon="1.57642">
        <ele>1020.1</ele>
        <time>2016-12-18T14:57:52Z</time>
      </trkpt>
      <trkpt lat="42.75801" lon="1.57635">
        <ele>1019.62</ele>
        <time>2016-12-18T14:58:02Z</time>
      </trkpt>
      <trkpt lat="42.75805" lon="1.57625">
        <ele>1019.13</ele>
        <time>2016-12-18T14:58:09Z</time>
      </trkpt>
      <trkpt lat="42.75812" lon="1.57614">
        <ele>1019.13</ele>
        <time>2016-12-18T14:58:19Z</time>
      </trkpt>
      <trkpt lat="42.75821" lon="1.57605">
        <ele>1019.62</ele>
        <time>2016-12-18T14:58:35Z</time>
      </trkpt>
      <trkpt lat="42.75834" lon="1.57592">
        <ele>1019.13</ele>
        <time>2016-12-18T14:58:50Z</time>
      </trkpt>
      <trkpt lat="42.75845" lon="1.57578">
        <ele>1018.65</ele>
        <time>2016-12-18T14:59:05Z</time>
      </trkpt>
      <trkpt lat="42.75854" lon="1.57562">
        <ele>1018.17</ele>
        <time>2016-12-18T14:59:17Z</time>
      </trkpt>
      <trkpt lat="42.75864" lon="1.57545">
        <ele>1018.17</ele>
        <time>2016-12-18T14:59:30Z</time>
      </trkpt>
      <trkpt lat="42.75871" lon="1.57529">
        <ele>1017.69</ele>
        <time>2016-12-18T14:59:40Z</time>
      </trkpt>
      <trkpt lat="42.75879" lon="1.57518">
        <ele>1017.21</ele>
        <time>2016-12-18T14:59:50Z</time>
      </trkpt>
      <trkpt lat="42.75888" lon="1.57505">
        <ele>1017.21</ele>
        <time>2016-12-18T15:00:02Z</time>
      </trkpt>
      <trkpt lat="42.75898" lon="1.57488">
        <ele>1016.25</ele>
        <time>2016-12-18T15:00:14Z</time>
      </trkpt>
      <trkpt lat="42.75906" lon="1.57475">
        <ele>1015.77</ele>
        <time>2016-12-18T15:00:26Z</time>
      </trkpt>
      <trkpt lat="42.75915" lon="1.57464">
        <ele>1015.29</ele>
        <time>2016-12-18T15:00:37Z</time>
      </trkpt>
      <trkpt lat="42.75926" lon="1.57453">
        <ele>1014.33</ele>
        <time>2016-12-18T15:00:50Z</time>
      </trkpt>
      <trkpt lat="42.75941" lon="1.5744">
        <ele>1014.33</ele>
        <time>2016-12-18T15:01:04Z</time>
      </trkpt>
      <trkpt lat="42.75955" lon="1.57428">
        <ele>1011.93</ele>
        <time>2016-12-18T15:01:21Z</time>
      </trkpt>
      <trkpt lat="42.75975" lon="1.57429">
        <ele>1010</ele>
        <time>2016-12-18T15:01:41Z</time>
      </trkpt>
      <trkpt lat="42.75992" lon="1.57424">
        <ele>1008.56</ele>
        <time>2016-12-18T15:01:56Z</time>
      </trkpt>
      <trkpt lat="42.76004" lon="1.57422">
        <ele>1007.12</ele>
        <time>2016-12-18T15:02:08Z</time>
      </trkpt>
      <trkpt lat="42.76022" lon="1.57422">
        <ele>1004.72</ele>
        <time>2016-12-18T15:02:26Z</time>
      </trkpt>
      <trkpt lat="42.76038" lon="1.57414">
        <ele>1002.79</ele>
        <time>2016-12-18T15:02:41Z</time>
      </trkpt>
      <trkpt lat="42.76055" lon="1.5741">
        <ele>1001.35</ele>
        <time>2016-12-18T15:02:53Z</time>
      </trkpt>
      <trkpt lat="42.76062" lon="1.57422">
        <ele>999.91</ele>
        <time>2016-12-18T15:03:05Z</time>
      </trkpt>
      <trkpt lat="42.76073" lon="1.57434">
        <ele>998.95</ele>
        <time>2016-12-18T15:03:16Z</time>
      </trkpt>
      <trkpt lat="42.76087" lon="1.57448">
        <ele>996.54</ele>
        <time>2016-12-18T15:03:31Z</time>
      </trkpt>
      <trkpt lat="42.76104" lon="1.57459">
        <ele>994.62</ele>
        <time>2016-12-18T15:03:47Z</time>
      </trkpt>
      <trkpt lat="42.76113" lon="1.57471">
        <ele>992.7</ele>
        <time>2016-12-18T15:04:01Z</time>
      </trkpt>
      <trkpt lat="42.76124" lon="1.5748">
        <ele>991.74</ele>
        <time>2016-12-18T15:04:13Z</time>
      </trkpt>
      <trkpt lat="42.7615" lon="1.57507">
        <ele>988.85</ele>
        <time>2016-12-18T15:04:37Z</time>
      </trkpt>
      <trkpt lat="42.76155" lon="1.57509">
        <ele>988.37</ele>
        <time>2016-12-18T15:04:59Z</time>
      </trkpt>
      <trkpt lat="42.76188" lon="1.57525">
        <ele>986.45</ele>
        <time>2016-12-18T15:05:29Z</time>
      </trkpt>
      <trkpt lat="42.76208" lon="1.57531">
        <ele>985.01</ele>
        <time>2016-12-18T15:05:46Z</time>
      </trkpt>
      <trkpt lat="42.76217" lon="1.57545">
        <ele>983.57</ele>
        <time>2016-12-18T15:05:57Z</time>
      </trkpt>
      <trkpt lat="42.76223" lon="1.5756">
        <ele>982.6</ele>
        <time>2016-12-18T15:06:07Z</time>
      </trkpt>
      <trkpt lat="42.7623" lon="1.57573">
        <ele>981.16</ele>
        <time>2016-12-18T15:06:18Z</time>
      </trkpt>
      <trkpt lat="42.76247" lon="1.57574">
        <ele>979.24</ele>
        <time>2016-12-18T15:06:33Z</time>
      </trkpt>
      <trkpt lat="42.76263" lon="1.57563">
        <ele>978.76</ele>
        <time>2016-12-18T15:06:43Z</time>
      </trkpt>
      <trkpt lat="42.7628" lon="1.57545">
        <ele>977.32</ele>
        <time>2016-12-18T15:07:04Z</time>
      </trkpt>
      <trkpt lat="42.76289" lon="1.57534">
        <ele>975.88</ele>
        <time>2016-12-18T15:07:14Z</time>
      </trkpt>
      <trkpt lat="42.76298" lon="1.57521">
        <ele>974.91</ele>
        <time>2016-12-18T15:07:24Z</time>
      </trkpt>
      <trkpt lat="42.76307" lon="1.57511">
        <ele>973.47</ele>
        <time>2016-12-18T15:07:33Z</time>
      </trkpt>
      <trkpt lat="42.76317" lon="1.57497">
        <ele>971.55</ele>
        <time>2016-12-18T15:07:43Z</time>
      </trkpt>
      <trkpt lat="42.76327" lon="1.57494">
        <ele>970.59</ele>
        <time>2016-12-18T15:07:53Z</time>
      </trkpt>
      <trkpt lat="42.76334" lon="1.57479">
        <ele>969.15</ele>
        <time>2016-12-18T15:08:03Z</time>
      </trkpt>
      <trkpt lat="42.76341" lon="1.57468">
        <ele>967.22</ele>
        <time>2016-12-18T15:08:14Z</time>
      </trkpt>
      <trkpt lat="42.76346" lon="1.57453">
        <ele>965.78</ele>
        <time>2016-12-18T15:08:25Z</time>
      </trkpt>
      <trkpt lat="42.76353" lon="1.57439">
        <ele>963.86</ele>
        <time>2016-12-18T15:08:36Z</time>
      </trkpt>
      <trkpt lat="42.76358" lon="1.57426">
        <ele>963.38</ele>
        <time>2016-12-18T15:08:46Z</time>
      </trkpt>
      <trkpt lat="42.76361" lon="1.57412">
        <ele>961.46</ele>
        <time>2016-12-18T15:08:55Z</time>
      </trkpt>
      <trkpt lat="42.76362" lon="1.57398">
        <ele>960.98</ele>
        <time>2016-12-18T15:09:04Z</time>
      </trkpt>
      <trkpt lat="42.76365" lon="1.57382">
        <ele>960.01</ele>
        <time>2016-12-18T15:09:14Z</time>
      </trkpt>
      <trkpt lat="42.76367" lon="1.5737">
        <ele>959.05</ele>
        <time>2016-12-18T15:09:22Z</time>
      </trkpt>
      <trkpt lat="42.7637" lon="1.57355">
        <ele>958.09</ele>
        <time>2016-12-18T15:09:31Z</time>
      </trkpt>
      <trkpt lat="42.76373" lon="1.57343">
        <ele>957.61</ele>
        <time>2016-12-18T15:09:38Z</time>
      </trkpt>
      <trkpt lat="42.76379" lon="1.57333">
        <ele>957.13</ele>
        <time>2016-12-18T15:09:46Z</time>
      </trkpt>
      <trkpt lat="42.76387" lon="1.57324">
        <ele>956.65</ele>
        <time>2016-12-18T15:09:55Z</time>
      </trkpt>
      <trkpt lat="42.76397" lon="1.57318">
        <ele>955.69</ele>
        <time>2016-12-18T15:10:05Z</time>
      </trkpt>
      <trkpt lat="42.76407" lon="1.5731">
        <ele>954.25</ele>
        <time>2016-12-18T15:10:15Z</time>
      </trkpt>
      <trkpt lat="42.76417" lon="1.57304">
        <ele>953.77</ele>
        <time>2016-12-18T15:10:25Z</time>
      </trkpt>
      <trkpt lat="42.76427" lon="1.57296">
        <ele>953.28</ele>
        <time>2016-12-18T15:10:33Z</time>
      </trkpt>
      <trkpt lat="42.76439" lon="1.57287">
        <ele>951.84</ele>
        <time>2016-12-18T15:10:43Z</time>
      </trkpt>
      <trkpt lat="42.76448" lon="1.57276">
        <ele>951.36</ele>
        <time>2016-12-18T15:10:51Z</time>
      </trkpt>
      <trkpt lat="42.76458" lon="1.57266">
        <ele>950.88</ele>
        <time>2016-12-18T15:11:00Z</time>
      </trkpt>
      <trkpt lat="42.76465" lon="1.57255">
        <ele>950.4</ele>
        <time>2016-12-18T15:11:10Z</time>
      </trkpt>
      <trkpt lat="42.76474" lon="1.57244">
        <ele>949.44</ele>
        <time>2016-12-18T15:11:20Z</time>
      </trkpt>
      <trkpt lat="42.76482" lon="1.57235">
        <ele>948.96</ele>
        <time>2016-12-18T15:11:29Z</time>
      </trkpt>
      <trkpt lat="42.76492" lon="1.57231">
        <ele>948</ele>
        <time>2016-12-18T15:11:38Z</time>
      </trkpt>
      <trkpt lat="42.76502" lon="1.57229">
        <ele>947.04</ele>
        <time>2016-12-18T15:11:46Z</time>
      </trkpt>
      <trkpt lat="42.76513" lon="1.5723">
        <ele>946.56</ele>
        <time>2016-12-18T15:11:55Z</time>
      </trkpt>
      <trkpt lat="42.76524" lon="1.57228">
        <ele>945.11</ele>
        <time>2016-12-18T15:12:03Z</time>
      </trkpt>
      <trkpt lat="42.7654" lon="1.57222">
        <ele>944.63</ele>
        <time>2016-12-18T15:12:14Z</time>
      </trkpt>
      <trkpt lat="42.7655" lon="1.57216">
        <ele>943.67</ele>
        <time>2016-12-18T15:12:22Z</time>
      </trkpt>
      <trkpt lat="42.76561" lon="1.57212">
        <ele>942.71</ele>
        <time>2016-12-18T15:12:31Z</time>
      </trkpt>
      <trkpt lat="42.7657" lon="1.57206">
        <ele>941.27</ele>
        <time>2016-12-18T15:12:40Z</time>
      </trkpt>
      <trkpt lat="42.7658" lon="1.57201">
        <ele>940.31</ele>
        <time>2016-12-18T15:12:49Z</time>
      </trkpt>
      <trkpt lat="42.76591" lon="1.57197">
        <ele>939.35</ele>
        <time>2016-12-18T15:12:57Z</time>
      </trkpt>
      <trkpt lat="42.76602" lon="1.57195">
        <ele>937.9</ele>
        <time>2016-12-18T15:13:08Z</time>
      </trkpt>
      <trkpt lat="42.76612" lon="1.572">
        <ele>940.79</ele>
        <time>2016-12-18T15:13:23Z</time>
      </trkpt>
      <trkpt lat="42.76627" lon="1.57209">
        <ele>945.11</ele>
        <time>2016-12-18T15:13:49Z</time>
      </trkpt>
      <trkpt lat="42.76643" lon="1.57223">
        <ele>948.48</ele>
        <time>2016-12-18T15:14:14Z</time>
      </trkpt>
      <trkpt lat="42.76652" lon="1.57232">
        <ele>951.84</ele>
        <time>2016-12-18T15:14:35Z</time>
      </trkpt>
      <trkpt lat="42.76651" lon="1.57244">
        <ele>955.69</ele>
        <time>2016-12-18T15:15:06Z</time>
      </trkpt>
      <trkpt lat="42.76653" lon="1.57261">
        <ele>957.61</ele>
        <time>2016-12-18T15:15:21Z</time>
      </trkpt>
      <trkpt lat="42.7666" lon="1.57271">
        <ele>960.01</ele>
        <time>2016-12-18T15:15:37Z</time>
      </trkpt>
      <trkpt lat="42.76667" lon="1.57279">
        <ele>962.42</ele>
        <time>2016-12-18T15:16:24Z</time>
      </trkpt>
      <trkpt lat="42.76675" lon="1.57296">
        <ele>966.26</ele>
        <time>2016-12-18T15:17:00Z</time>
      </trkpt>
      <trkpt lat="42.7669" lon="1.57289">
        <ele>964.82</ele>
        <time>2016-12-18T15:17:15Z</time>
      </trkpt>
      <trkpt lat="42.76703" lon="1.5729">
        <ele>963.86</ele>
        <time>2016-12-18T15:17:29Z</time>
      </trkpt>
      <trkpt lat="42.76714" lon="1.57291">
        <ele>962.9</ele>
        <time>2016-12-18T15:17:42Z</time>
      </trkpt>
      <trkpt lat="42.76724" lon="1.57284">
        <ele>961.46</ele>
        <time>2016-12-18T15:17:54Z</time>
      </trkpt>
      <trkpt lat="42.76728" lon="1.57271">
        <ele>958.09</ele>
        <time>2016-12-18T15:18:14Z</time>
      </trkpt>
      <trkpt lat="42.76741" lon="1.57262">
        <ele>957.61</ele>
        <time>2016-12-18T15:18:36Z</time>
      </trkpt>
    </trkseg>
  </trk>
</gpx>